Observation data for Fort Lewis CO on 12/10/2018      Previous  Date       Current Mesonet Observations  Soil Data  Daily Summary Page  Observations in Plain Language
KFL1 100600Z 04005KT M06/M09 A3043 RMK A01 T10621086  RH  083%=      5-min Rain = 0
KFL1 100601Z 03004KT M06/M08 A3043 RMK A01 T10601082  RH  085%=      5-min Rain = 0
KFL1 100602Z 04004KT M06/M08 A3043 RMK A01 T10591080  RH  085%=      5-min Rain = 0
KFL1 100603Z 03003KT M06/M08 A3043 RMK A01 T10581080  RH  084%=      5-min Rain = 0
KFL1 100604Z 05004KT M06/M09 A3043 RMK A01 T10581085  RH  081%=      5-min Rain = 0
KFL1 100605Z 04004KT M06/M09 A3043 RMK A01 T10601089  RH  080%=      5-min Rain = 0
KFL1 100606Z 04003KT M06/M09 A3043 RMK A01 T10621090  RH  080%=      5-min Rain = 0
KFL1 100607Z 05004KT M06/M09 A3043 RMK A01 T10641092  RH  080%=      5-min Rain = 0
KFL1 100608Z 04004KT M06/M09 A3043 RMK A01 T10641092  RH  081%=      5-min Rain = 0
KFL1 100609Z 05003KT M07/M09 A3043 RMK A01 T10651091  RH  082%=      5-min Rain = 0
KFL1 100610Z 04004KT M07/M10 A3043 RMK A01 T10681099  RH  079%=      5-min Rain = 0
KFL1 100611Z 05004KT M07/M10 A3043 RMK A01 T10711103  RH  077%=      5-min Rain = 0
KFL1 100612Z 05004KT M07/M11 A3043 RMK A01 T10741108  RH  077%=      5-min Rain = 0
KFL1 100613Z 05004KT M08/M12 A3043 RMK A01 T10781116  RH  075%=      5-min Rain = 0
KFL1 100614Z 05005KT M08/M13 A3043 RMK A01 T10831125  RH  072%=      5-min Rain = 0
KFL1 100615Z 05005KT M09/M13 A3043 RMK A01 T10871133  RH  069%=      5-min Rain = 0
KFL1 100616Z 05006KT M09/M14 A3043 RMK A01 T10891137  RH  068%=      5-min Rain = 0
KFL1 100617Z 05007KT M09/M14 A3043 RMK A01 T10931143  RH  067%=      5-min Rain = 0
KFL1 100618Z 04008KT M10/M15 A3043 RMK A01 T10951147  RH  066%=      5-min Rain = 0
KFL1 100619Z 05007KT M10/M15 A3043 RMK A01 T10961151  RH  064%=      5-min Rain = 0
KFL1 100620Z 04009KT M10/M15 A3043 RMK A01 T10951151  RH  064%=      5-min Rain = 0
KFL1 100621Z 04009KT M09/M15 A3043 RMK A01 T10931150  RH  063%=      5-min Rain = 0
KFL1 100622Z 04008KT M09/M15 A3043 RMK A01 T10901149  RH  062%=      5-min Rain = 0
KFL1 100623Z 04009KT M09/M15 A3043 RMK A01 T10901151  RH  061%=      5-min Rain = 0
KFL1 100624Z 05009KT M09/M15 A3043 RMK A01 T10891151  RH  061%=      5-min Rain = 0
KFL1 100625Z 04009KT M09/M15 A3043 RMK A01 T10891153  RH  060%=      5-min Rain = 0
KFL1 100626Z 04009KT M09/M15 A3043 RMK A01 T10901153  RH  060%=      5-min Rain = 0
KFL1 100627Z 04008KT M09/M15 A3043 RMK A01 T10881153  RH  060%=      5-min Rain = 0
KFL1 100628Z 04009KT M09/M16 A3043 RMK A01 T10901155  RH  059%=      5-min Rain = 0
KFL1 100629Z 04010KT M09/M16 A3043 RMK A01 T10911157  RH  059%=      5-min Rain = 0
KFL1 100630Z 04010KT M09/M16 A3042 RMK A01 T10921159  RH  058%=      5-min Rain = 0
KFL1 100631Z 04010KT M09/M16 A3042 RMK A01 T10911159  RH  058%=      5-min Rain = 0
KFL1 100632Z 04011KT M09/M16 A3042 RMK A01 T10901159  RH  057%=      5-min Rain = 0
KFL1 100633Z 04011KT M09/M16 A3042 RMK A01 T10901160  RH  057%=      5-min Rain = 0
KFL1 100634Z 04011KT M09/M16 A3042 RMK A01 T10921162  RH  057%=      5-min Rain = 0
KFL1 100635Z 04010KT M09/M16 A3042 RMK A01 T10921161  RH  057%=      5-min Rain = 0
KFL1 100636Z 04010KT M09/M16 A3042 RMK A01 T10911159  RH  058%=      5-min Rain = 0
KFL1 100637Z 04010KT M09/M15 A3042 RMK A01 T10881151  RH  060%=      5-min Rain = 0
KFL1 100638Z 04009KT M08/M15 A3042 RMK A01 T10831145  RH  061%=      5-min Rain = 0
KFL1 100639Z 04009KT M08/M14 A3042 RMK A01 T10821144  RH  061%=      5-min Rain = 0
KFL1 100640Z 04009KT M08/M14 A3042 RMK A01 T10821144  RH  061%=      5-min Rain = 0
KFL1 100641Z 04009KT M08/M14 A3042 RMK A01 T10811143  RH  061%=      5-min Rain = 0
KFL1 100642Z 04009KT M08/M14 A3042 RMK A01 T10821144  RH  061%=      5-min Rain = 0
KFL1 100643Z 04009KT M08/M14 A3042 RMK A01 T10821144  RH  061%=      5-min Rain = 0
KFL1 100644Z 04009KT M08/M14 A3042 RMK A01 T10811142  RH  061%=      5-min Rain = 0
KFL1 100645Z 04009KT M08/M14 A3042 RMK A01 T10811143  RH  061%=      5-min Rain = 0
KFL1 100646Z 04008KT M08/M15 A3042 RMK A01 T10841149  RH  059%=      5-min Rain = 0
KFL1 100647Z 04008KT M09/M15 A3042 RMK A01 T10861153  RH  059%=      5-min Rain = 0
KFL1 100648Z 04008KT M09/M16 A3042 RMK A01 T10891156  RH  058%=      5-min Rain = 0
KFL1 100649Z 04009KT M09/M16 A3042 RMK A01 T10901159  RH  057%=      5-min Rain = 0
KFL1 100650Z 05009KT M09/M16 A3042 RMK A01 T10921161  RH  057%=      5-min Rain = 0
KFL1 100651Z 04009KT M09/M16 A3042 RMK A01 T10931164  RH  056%=      5-min Rain = 0
KFL1 100652Z 04009KT M10/M17 A3042 RMK A01 T10951166  RH  056%=      5-min Rain = 0
KFL1 100653Z 05009KT M10/M17 A3042 RMK A01 T10951168  RH  055%=      5-min Rain = 0
KFL1 100654Z 04009KT M09/M17 A3042 RMK A01 T10941168  RH  055%=      5-min Rain = 0
KFL1 100655Z 05010KT M09/M17 A3042 RMK A01 T10941168  RH  055%=      5-min Rain = 0
KFL1 100656Z 04009KT M09/M17 A3042 RMK A01 T10931168  RH  055%=      5-min Rain = 0
KFL1 100657Z 04010KT M09/M17 A3042 RMK A01 T10931169  RH  054%=      5-min Rain = 0
KFL1 100658Z 03010KT M09/M17 A3042 RMK A01 T10911169  RH  053%=      5-min Rain = 0
KFL1 100659Z 03010KT M09/M17 A3042 RMK A01 T10911169  RH  053%=      5-min Rain = 0
KFL1 100700Z 03010KT M09/M17 A3042 RMK A01 T10881165  RH  053%=      5-min Rain = 0
KFL1 100701Z 03010KT M08/M16 A3042 RMK A01 T10831156  RH  056%=      5-min Rain = 0
KFL1 100702Z 03010KT M08/M15 A3042 RMK A01 T10781146  RH  058%=      5-min Rain = 0
KFL1 100703Z 03009KT M08/M14 A3042 RMK A01 T10761140  RH  060%=      5-min Rain = 0
KFL1 100704Z 03009KT M07/M14 A3042 RMK A01 T10741136  RH  062%=      5-min Rain = 0
KFL1 100705Z 02009KT M08/M15 A3042 RMK A01 T10801145  RH  060%=      5-min Rain = 0
KFL1 100706Z 02010KT M09/M16 A3042 RMK A01 T10881156  RH  058%=      5-min Rain = 0
KFL1 100707Z 02010KT M09/M16 A3042 RMK A01 T10921159  RH  058%=      5-min Rain = 0
KFL1 100708Z 02009KT M10/M16 A3042 RMK A01 T10951160  RH  059%=      5-min Rain = 0
KFL1 100709Z 02009KT M10/M16 A3042 RMK A01 T10981160  RH  060%=      5-min Rain = 0
KFL1 100710Z 02009KT M10/M16 A3042 RMK A01 T10991160  RH  061%=      5-min Rain = 0
KFL1 100711Z 02008KT M10/M16 A3042 RMK A01 T11031164  RH  061%=      5-min Rain = 0
KFL1 100712Z 02008KT M11/M16 A3042 RMK A01 T11051164  RH  062%=      5-min Rain = 0
KFL1 100713Z 03008KT M11/M17 A3043 RMK A01 T11061165  RH  062%=      5-min Rain = 0
KFL1 100714Z 02008KT M11/M17 A3043 RMK A01 T11071165  RH  062%=      5-min Rain = 0
KFL1 100715Z 02008KT M11/M17 A3042 RMK A01 T11091166  RH  063%=      5-min Rain = 0
KFL1 100716Z 02008KT M11/M17 A3042 RMK A01 T11101166  RH  063%=      5-min Rain = 0
KFL1 100717Z 03007KT M11/M17 A3042 RMK A01 T11131167  RH  064%=      5-min Rain = 0
KFL1 100718Z 03007KT M11/M16 A3042 RMK A01 T11081161  RH  065%=      5-min Rain = 0
KFL1 100719Z 03006KT M10/M16 A3042 RMK A01 T11011155  RH  065%=      5-min Rain = 0
KFL1 100720Z 04003KT M10/M15 A3042 RMK A01 T10971151  RH  065%=      5-min Rain = 0
KFL1 100721Z 07001KT M10/M15 A3042 RMK A01 T10961152  RH  064%=      5-min Rain = 0
KFL1 100722Z 03001KT M10/M15 A3042 RMK A01 T10951154  RH  062%=      5-min Rain = 0
KFL1 100723Z 02002KT M10/M16 A3042 RMK A01 T10951155  RH  062%=      5-min Rain = 0
KFL1 100724Z 04002KT M09/M15 A3042 RMK A01 T10941152  RH  062%=      5-min Rain = 0
KFL1 100725Z 05002KT M09/M15 A3042 RMK A01 T10911149  RH  063%=      5-min Rain = 0
KFL1 100726Z 06002KT M09/M15 A3042 RMK A01 T10891149  RH  062%=      5-min Rain = 0
KFL1 100727Z 05003KT M09/M15 A3042 RMK A01 T10911151  RH  062%=      5-min Rain = 0
KFL1 100728Z 06002KT M09/M15 A3042 RMK A01 T10911152  RH  062%=      5-min Rain = 0
KFL1 100729Z 06003KT M09/M15 A3042 RMK A01 T10941154  RH  062%=      5-min Rain = 0
KFL1 100730Z 05004KT M10/M15 A3042 RMK A01 T10951154  RH  062%=      5-min Rain = 0
KFL1 100731Z 05005KT M10/M15 A3042 RMK A01 T10951154  RH  062%=      5-min Rain = 0
KFL1 100732Z 05006KT M10/M16 A3042 RMK A01 T10961157  RH  061%=      5-min Rain = 0
KFL1 100733Z 05005KT M10/M16 A3042 RMK A01 T10971162  RH  059%=      5-min Rain = 0
KFL1 100734Z 04006KT M10/M17 A3042 RMK A01 T10971165  RH  058%=      5-min Rain = 0
KFL1 100735Z 04006KT M10/M17 A3042 RMK A01 T10971166  RH  057%=      5-min Rain = 0
KFL1 100736Z 04007KT M10/M17 A3042 RMK A01 T10961166  RH  057%=      5-min Rain = 0
KFL1 100737Z 04007KT M09/M16 A3042 RMK A01 T10931163  RH  057%=      5-min Rain = 0
KFL1 100738Z 04007KT M09/M16 A3042 RMK A01 T10911158  RH  058%=      5-min Rain = 0
KFL1 100739Z 04006KT M09/M15 A3042 RMK A01 T10851151  RH  059%=      5-min Rain = 0
KFL1 100740Z 04006KT M08/M15 A3042 RMK A01 T10831150  RH  059%=      5-min Rain = 0
KFL1 100741Z 04006KT M08/M15 A3042 RMK A01 T10811149  RH  058%=      5-min Rain = 0
KFL1 100742Z 04005KT M08/M15 A3042 RMK A01 T10811151  RH  057%=      5-min Rain = 0
KFL1 100743Z 04004KT M09/M16 A3042 RMK A01 T10871160  RH  055%=      5-min Rain = 0
KFL1 100744Z 04005KT M10/M18 A3042 RMK A01 T11021177  RH  054%=      5-min Rain = 0
KFL1 100745Z 04006KT M11/M18 A3042 RMK A01 T11091179  RH  056%=      5-min Rain = 0
KFL1 100746Z 04005KT M11/M18 A3042 RMK A01 T11121176  RH  059%=      5-min Rain = 0
KFL1 100747Z 04005KT M11/M17 A3042 RMK A01 T11101170  RH  061%=      5-min Rain = 0
KFL1 100748Z 03005KT M11/M17 A3042 RMK A01 T11081168  RH  061%=      5-min Rain = 0
KFL1 100749Z 03007KT M11/M17 A3042 RMK A01 T11111172  RH  061%=      5-min Rain = 0
KFL1 100750Z 04007KT M11/M17 A3042 RMK A01 T11121171  RH  062%=      5-min Rain = 0
KFL1 100751Z 04007KT M10/M16 A3042 RMK A01 T11031160  RH  063%=      5-min Rain = 0
KFL1 100752Z 04007KT M09/M15 A3042 RMK A01 T10921152  RH  062%=      5-min Rain = 0
KFL1 100753Z 04007KT M09/M15 A3042 RMK A01 T10851152  RH  059%=      5-min Rain = 0
KFL1 100754Z 04007KT M08/M15 A3042 RMK A01 T10811154  RH  056%=      5-min Rain = 0
KFL1 100755Z 04007KT M08/M16 A3042 RMK A01 T10801157  RH  054%=      5-min Rain = 0
KFL1 100756Z 04007KT M08/M16 A3042 RMK A01 T10801160  RH  053%=      5-min Rain = 0
KFL1 100757Z 04007KT M08/M17 A3042 RMK A01 T10831165  RH  052%=      5-min Rain = 0
KFL1 100758Z 04007KT M08/M17 A3042 RMK A01 T10841167  RH  051%=      5-min Rain = 0
KFL1 100759Z 04007KT M09/M17 A3042 RMK A01 T10851169  RH  051%=      5-min Rain = 0
KFL1 100800Z 04007KT M09/M17 A3042 RMK A01 T10851169  RH  051%=      5-min Rain = 0
KFL1 100801Z 04007KT M09/M17 A3042 RMK A01 T10871171  RH  051%=      5-min Rain = 0
KFL1 100802Z 05007KT M09/M17 A3042 RMK A01 T10871171  RH  051%=      5-min Rain = 0
KFL1 100803Z 05007KT M09/M17 A3042 RMK A01 T10881173  RH  050%=      5-min Rain = 0
KFL1 100804Z 04008KT M09/M17 A3042 RMK A01 T10881172  RH  050%=      5-min Rain = 0
KFL1 100805Z 04008KT M09/M17 A3042 RMK A01 T10871172  RH  050%=      5-min Rain = 0
KFL1 100806Z 04008KT M09/M17 A3042 RMK A01 T10871171  RH  050%=      5-min Rain = 0
KFL1 100807Z 04008KT M09/M17 A3042 RMK A01 T10871172  RH  050%=      5-min Rain = 0
KFL1 100808Z 04008KT M08/M17 A3042 RMK A01 T10841170  RH  050%=      5-min Rain = 0
KFL1 100809Z 04007KT M08/M17 A3041 RMK A01 T10821169  RH  050%=      5-min Rain = 0
KFL1 100810Z 04008KT M08/M17 A3041 RMK A01 T10811169  RH  049%=      5-min Rain = 0
KFL1 100811Z 04008KT M08/M17 A3041 RMK A01 T10811171  RH  049%=      5-min Rain = 0
KFL1 100812Z 04007KT M08/M17 A3041 RMK A01 T10791167  RH  049%=      5-min Rain = 0
KFL1 100813Z 04007KT M07/M16 A3041 RMK A01 T10741160  RH  050%=      5-min Rain = 0
KFL1 100814Z 04007KT M07/M16 A3041 RMK A01 T10711157  RH  051%=      5-min Rain = 0
KFL1 100815Z 04006KT M07/M15 A3041 RMK A01 T10691154  RH  051%=      5-min Rain = 0
KFL1 100816Z 04006KT M07/M15 A3041 RMK A01 T10691154  RH  051%=      5-min Rain = 0
KFL1 100817Z 04007KT M07/M16 A3041 RMK A01 T10691155  RH  050%=      5-min Rain = 0
KFL1 100818Z 04008KT M07/M16 A3041 RMK A01 T10701158  RH  050%=      5-min Rain = 0
KFL1 100819Z 04008KT M07/M16 A3041 RMK A01 T10731162  RH  049%=      5-min Rain = 0
KFL1 100820Z 04008KT M08/M17 A3041 RMK A01 T10781168  RH  048%=      5-min Rain = 0
KFL1 100821Z 04008KT M08/M17 A3041 RMK A01 T10791169  RH  049%=      5-min Rain = 0
KFL1 100822Z 04008KT M08/M17 A3041 RMK A01 T10821171  RH  049%=      5-min Rain = 0
KFL1 100823Z 04008KT M08/M17 A3041 RMK A01 T10821170  RH  049%=      5-min Rain = 0
KFL1 100824Z 05008KT M08/M17 A3041 RMK A01 T10821169  RH  050%=      5-min Rain = 0
KFL1 100825Z 04007KT M08/M17 A3041 RMK A01 T10811166  RH  050%=      5-min Rain = 0
KFL1 100826Z 04008KT M08/M17 A3041 RMK A01 T10791166  RH  050%=      5-min Rain = 0
KFL1 100827Z 04008KT M08/M17 A3041 RMK A01 T10801168  RH  049%=      5-min Rain = 0
KFL1 100828Z 04009KT M08/M17 A3041 RMK A01 T10791168  RH  049%=      5-min Rain = 0
KFL1 100829Z 04008KT M08/M17 A304 RMK A01 T10801171  RH  048%=      5-min Rain = 0
KFL1 100830Z 04009KT M08/M17 A304 RMK A01 T10781169  RH  048%=      5-min Rain = 0
KFL1 100831Z 04008KT M08/M17 A304 RMK A01 T10781169  RH  048%=      5-min Rain = 0
KFL1 100832Z 04008KT M08/M17 A304 RMK A01 T10761169  RH  047%=      5-min Rain = 0
KFL1 100833Z 03007KT M07/M17 A304 RMK A01 T10741169  RH  047%=      5-min Rain = 0
KFL1 100834Z 03007KT M08/M17 A304 RMK A01 T10761170  RH  047%=      5-min Rain = 0
KFL1 100835Z 03007KT M08/M17 A304 RMK A01 T10751167  RH  047%=      5-min Rain = 0
KFL1 100836Z 03007KT M08/M17 A304 RMK A01 T10771169  RH  048%=      5-min Rain = 0
KFL1 100837Z 03007KT M08/M17 A304 RMK A01 T10801170  RH  048%=      5-min Rain = 0
KFL1 100838Z 03007KT M08/M17 A304 RMK A01 T10841172  RH  049%=      5-min Rain = 0
KFL1 100839Z 03007KT M09/M17 A304 RMK A01 T10881174  RH  050%=      5-min Rain = 0
KFL1 100840Z 03007KT M09/M18 A304 RMK A01 T10921175  RH  051%=      5-min Rain = 0
KFL1 100841Z 03007KT M10/M18 A304 RMK A01 T10971177  RH  052%=      5-min Rain = 0
KFL1 100842Z 03007KT M10/M18 A304 RMK A01 T10971175  RH  053%=      5-min Rain = 0
KFL1 100843Z 03007KT M10/M17 A304 RMK A01 T10981174  RH  054%=      5-min Rain = 0
KFL1 100844Z 03008KT M10/M17 A304 RMK A01 T10991173  RH  055%=      5-min Rain = 0
KFL1 100845Z 04007KT M10/M17 A304 RMK A01 T10971171  RH  055%=      5-min Rain = 0
KFL1 100846Z 04008KT M09/M17 A304 RMK A01 T10931167  RH  055%=      5-min Rain = 0
KFL1 100847Z 04007KT M09/M16 A304 RMK A01 T10881163  RH  055%=      5-min Rain = 0
KFL1 100848Z 04008KT M09/M16 A304 RMK A01 T10861163  RH  054%=      5-min Rain = 0
KFL1 100849Z 05007KT M09/M17 A304 RMK A01 T10851165  RH  052%=      5-min Rain = 0
KFL1 100850Z 04008KT M08/M17 A304 RMK A01 T10841167  RH  051%=      5-min Rain = 0
KFL1 100851Z 04008KT M08/M17 A304 RMK A01 T10831169  RH  050%=      5-min Rain = 0
KFL1 100852Z 04008KT M08/M17 A304 RMK A01 T10821169  RH  050%=      5-min Rain = 0
KFL1 100853Z 04008KT M08/M17 A304 RMK A01 T10811168  RH  050%=      5-min Rain = 0
KFL1 100854Z 04007KT M08/M16 A304 RMK A01 T10781163  RH  050%=      5-min Rain = 0
KFL1 100855Z 04008KT M08/M16 A304 RMK A01 T10761159  RH  051%=      5-min Rain = 0
KFL1 100856Z 04008KT M07/M16 A304 RMK A01 T10741159  RH  051%=      5-min Rain = 0
KFL1 100857Z 04008KT M08/M16 A304 RMK A01 T10761163  RH  050%=      5-min Rain = 0
KFL1 100858Z 04008KT M07/M16 A304 RMK A01 T10741162  RH  049%=      5-min Rain = 0
KFL1 100859Z 04008KT M07/M16 A304 RMK A01 T10741162  RH  050%=      5-min Rain = 0
KFL1 100900Z 04007KT M07/M16 A304 RMK A01 T10731158  RH  050%=      5-min Rain = 0
KFL1 100901Z 04007KT M07/M16 A304 RMK A01 T10741158  RH  051%=      5-min Rain = 0
KFL1 100902Z 04008KT M07/M16 A304 RMK A01 T10731158  RH  051%=      5-min Rain = 0
KFL1 100903Z 03007KT M07/M16 A304 RMK A01 T10741158  RH  051%=      5-min Rain = 0
KFL1 100904Z 03008KT M07/M16 A304 RMK A01 T10741155  RH  052%=      5-min Rain = 0
KFL1 100905Z 03008KT M07/M15 A3039 RMK A01 T10731153  RH  053%=      5-min Rain = 0
KFL1 100906Z 03008KT M07/M15 A3039 RMK A01 T10731152  RH  053%=      5-min Rain = 0
KFL1 100907Z 03008KT M07/M15 A3039 RMK A01 T10741154  RH  053%=      5-min Rain = 0
KFL1 100908Z 04008KT M08/M16 A3039 RMK A01 T10801160  RH  053%=      5-min Rain = 0
KFL1 100909Z 04007KT M08/M16 A3039 RMK A01 T10811158  RH  054%=      5-min Rain = 0
KFL1 100910Z 04006KT M08/M16 A3039 RMK A01 T10811156  RH  055%=      5-min Rain = 0
KFL1 100911Z 04006KT M08/M15 A3039 RMK A01 T10801154  RH  056%=      5-min Rain = 0
KFL1 100912Z 04006KT M08/M16 A3039 RMK A01 T10821156  RH  055%=      5-min Rain = 0
KFL1 100913Z 05006KT M08/M16 A3039 RMK A01 T10831159  RH  055%=      5-min Rain = 0
KFL1 100914Z 04007KT M09/M17 A3039 RMK A01 T10881166  RH  053%=      5-min Rain = 0
KFL1 100915Z 04006KT M09/M17 A3039 RMK A01 T10911170  RH  052%=      5-min Rain = 0
KFL1 100916Z 05008KT M09/M17 A3039 RMK A01 T10931173  RH  052%=      5-min Rain = 0
KFL1 100917Z 05009KT M10/M18 A3039 RMK A01 T10971176  RH  052%=      5-min Rain = 0
KFL1 100918Z 05010KT M10/M18 A3039 RMK A01 T11011180  RH  052%=      5-min Rain = 0
KFL1 100919Z 05011KT M10/M18 A3039 RMK A01 T11031181  RH  053%=      5-min Rain = 0
KFL1 100920Z 05011KT M11/M18 A3039 RMK A01 T11061183  RH  053%=      5-min Rain = 0
KFL1 100921Z 04011KT M11/M18 A3039 RMK A01 T11061182  RH  054%=      5-min Rain = 0
KFL1 100922Z 05010KT M11/M18 A3039 RMK A01 T11061182  RH  054%=      5-min Rain = 0
KFL1 100923Z 04010KT M11/M18 A3039 RMK A01 T11061181  RH  054%=      5-min Rain = 0
KFL1 100924Z 04010KT M11/M18 A3039 RMK A01 T11061182  RH  054%=      5-min Rain = 0
KFL1 100925Z 04010KT M11/M18 A3039 RMK A01 T11051181  RH  053%=      5-min Rain = 0
KFL1 100926Z 04010KT M11/M18 A3039 RMK A01 T11051182  RH  053%=      5-min Rain = 0
KFL1 100927Z 04009KT M10/M18 A3039 RMK A01 T11041181  RH  053%=      5-min Rain = 0
KFL1 100928Z 04010KT M10/M18 A3039 RMK A01 T11031180  RH  053%=      5-min Rain = 0
KFL1 100929Z 04010KT M10/M18 A3039 RMK A01 T11011179  RH  053%=      5-min Rain = 0
KFL1 100930Z 04011KT M10/M18 A3039 RMK A01 T11011180  RH  052%=      5-min Rain = 0
KFL1 100931Z 04011KT M10/M18 A3039 RMK A01 T10991179  RH  052%=      5-min Rain = 0
KFL1 100932Z 05010KT M10/M18 A3039 RMK A01 T10981178  RH  052%=      5-min Rain = 0
KFL1 100933Z 04011KT M09/M18 A3039 RMK A01 T10941175  RH  052%=      5-min Rain = 0
KFL1 100934Z 04010KT M09/M17 A3039 RMK A01 T10911174  RH  051%=      5-min Rain = 0
KFL1 100935Z 04010KT M09/M17 A3039 RMK A01 T10881171  RH  051%=      5-min Rain = 0
KFL1 100936Z 04011KT M09/M17 A3039 RMK A01 T10861169  RH  051%=      5-min Rain = 0
KFL1 100937Z 04010KT M08/M17 A3039 RMK A01 T10841169  RH  050%=      5-min Rain = 0
KFL1 100938Z 04010KT M08/M17 A3039 RMK A01 T10841171  RH  049%=      5-min Rain = 0
KFL1 100939Z 04008KT M08/M17 A3039 RMK A01 T10821170  RH  049%=      5-min Rain = 0
KFL1 100940Z 04008KT M08/M17 A3039 RMK A01 T10821171  RH  049%=      5-min Rain = 0
KFL1 100941Z 04009KT M08/M17 A3039 RMK A01 T10791170  RH  048%=      5-min Rain = 0
KFL1 100942Z 04010KT M08/M17 A3039 RMK A01 T10801174  RH  047%=      5-min Rain = 0
KFL1 100943Z 04010KT M08/M18 A3039 RMK A01 T10801175  RH  046%=      5-min Rain = 0
KFL1 100944Z 04010KT M08/M18 A3039 RMK A01 T10821179  RH  046%=      5-min Rain = 0
KFL1 100945Z 04010KT M08/M18 A3039 RMK A01 T10841180  RH  046%=      5-min Rain = 0
KFL1 100946Z 04010KT M09/M18 A3039 RMK A01 T10851180  RH  046%=      5-min Rain = 0
KFL1 100947Z 03010KT M09/M18 A3039 RMK A01 T10881182  RH  047%=      5-min Rain = 0
KFL1 100948Z 04010KT M09/M18 A3039 RMK A01 T10861180  RH  047%=      5-min Rain = 0
KFL1 100949Z 04010KT M09/M18 A3039 RMK A01 T10851178  RH  047%=      5-min Rain = 0
KFL1 100950Z 05010KT M09/M18 A3039 RMK A01 T10861179  RH  047%=      5-min Rain = 0
KFL1 100951Z 04010KT M09/M18 A3039 RMK A01 T10851177  RH  047%=      5-min Rain = 0
KFL1 100952Z 04010KT M09/M18 A3039 RMK A01 T10881180  RH  048%=      5-min Rain = 0
KFL1 100953Z 04010KT M09/M18 A3039 RMK A01 T10881178  RH  048%=      5-min Rain = 0
KFL1 100954Z 04010KT M09/M18 A3039 RMK A01 T10911180  RH  048%=      5-min Rain = 0
KFL1 100955Z 04010KT M09/M18 A3039 RMK A01 T10911180  RH  049%=      5-min Rain = 0
KFL1 100956Z 05009KT M09/M18 A3039 RMK A01 T10921180  RH  049%=      5-min Rain = 0
KFL1 100957Z 05010KT M09/M18 A3039 RMK A01 T10911178  RH  049%=      5-min Rain = 0
KFL1 100958Z 05009KT M09/M18 A3039 RMK A01 T10941181  RH  049%=      5-min Rain = 0
KFL1 100959Z 05010KT M10/M18 A3039 RMK A01 T10951181  RH  049%=      5-min Rain = 0
KFL1 101000Z 05009KT M09/M18 A3039 RMK A01 T10941180  RH  049%=      5-min Rain = 0
KFL1 101001Z 05009KT M10/M18 A3039 RMK A01 T10951181  RH  049%=      5-min Rain = 0
KFL1 101002Z 05007KT M10/M18 A3039 RMK A01 T10951180  RH  050%=      5-min Rain = 0
KFL1 101003Z 05009KT M10/M18 A3039 RMK A01 T10961180  RH  050%=      5-min Rain = 0
KFL1 101004Z 05008KT M10/M18 A3039 RMK A01 T10961179  RH  051%=      5-min Rain = 0
KFL1 101005Z 05008KT M10/M18 A3039 RMK A01 T10971180  RH  051%=      5-min Rain = 0
KFL1 101006Z 05008KT M10/M18 A3039 RMK A01 T10971180  RH  051%=      5-min Rain = 0
KFL1 101007Z 05008KT M10/M18 A3039 RMK A01 T10961180  RH  051%=      5-min Rain = 0
KFL1 101008Z 05008KT M10/M18 A3039 RMK A01 T10981182  RH  051%=      5-min Rain = 0
KFL1 101009Z 05007KT M10/M18 A3039 RMK A01 T10971180  RH  051%=      5-min Rain = 0
KFL1 101010Z 05008KT M10/M18 A3039 RMK A01 T10971180  RH  051%=      5-min Rain = 0
KFL1 101011Z 05008KT M10/M18 A3039 RMK A01 T10971180  RH  051%=      5-min Rain = 0
KFL1 101012Z 05008KT M10/M18 A3039 RMK A01 T10951178  RH  051%=      5-min Rain = 0
KFL1 101013Z 04008KT M09/M18 A3039 RMK A01 T10941178  RH  050%=      5-min Rain = 0
KFL1 101014Z 04008KT M09/M18 A3039 RMK A01 T10931178  RH  050%=      5-min Rain = 0
KFL1 101015Z 03007KT M09/M18 A3039 RMK A01 T10931179  RH  049%=      5-min Rain = 0
KFL1 101016Z 03007KT M09/M18 A3039 RMK A01 T10911180  RH  049%=      5-min Rain = 0
KFL1 101017Z 03006KT M10/M19 A3039 RMK A01 T10991187  RH  049%=      5-min Rain = 0
KFL1 101018Z 03008KT M11/M19 A3039 RMK A01 T11091192  RH  050%=      5-min Rain = 0
KFL1 101019Z 04009KT M11/M19 A3039 RMK A01 T11081187  RH  052%=      5-min Rain = 0
KFL1 101020Z 04007KT M10/M18 A3039 RMK A01 T11001181  RH  052%=      5-min Rain = 0
KFL1 101021Z 04006KT M10/M18 A304 RMK A01 T10951180  RH  050%=      5-min Rain = 0
KFL1 101022Z 05006KT M09/M18 A3039 RMK A01 T10911179  RH  049%=      5-min Rain = 0
KFL1 101023Z 05006KT M09/M18 A3039 RMK A01 T10911181  RH  048%=      5-min Rain = 0
KFL1 101024Z 05006KT M09/M18 A3039 RMK A01 T10891180  RH  048%=      5-min Rain = 0
KFL1 101025Z 05006KT M09/M18 A3039 RMK A01 T10901182  RH  047%=      5-min Rain = 0
KFL1 101026Z 05005KT M09/M18 A3039 RMK A01 T10901182  RH  047%=      5-min Rain = 0
KFL1 101027Z 05006KT M09/M18 A3039 RMK A01 T10901182  RH  047%=      5-min Rain = 0
KFL1 101028Z 04005KT M09/M18 A3039 RMK A01 T10911183  RH  047%=      5-min Rain = 0
KFL1 101029Z 04005KT M09/M19 A3039 RMK A01 T10921185  RH  047%=      5-min Rain = 0
KFL1 101030Z 04005KT M09/M18 A3039 RMK A01 T10901183  RH  047%=      5-min Rain = 0
KFL1 101031Z 05005KT M09/M19 A3039 RMK A01 T10911185  RH  046%=      5-min Rain = 0
KFL1 101032Z 04005KT M09/M18 A3039 RMK A01 T10901184  RH  046%=      5-min Rain = 0
KFL1 101033Z 04005KT M09/M19 A3039 RMK A01 T10901185  RH  046%=      5-min Rain = 0
KFL1 101034Z 04005KT M09/M18 A3039 RMK A01 T10901184  RH  046%=      5-min Rain = 0
KFL1 101035Z 04005KT M09/M18 A3039 RMK A01 T10891184  RH  046%=      5-min Rain = 0
KFL1 101036Z 04004KT M09/M19 A3039 RMK A01 T10911185  RH  046%=      5-min Rain = 0
KFL1 101037Z 05005KT M09/M19 A3039 RMK A01 T10921185  RH  047%=      5-min Rain = 0
KFL1 101038Z 04006KT M09/M18 A3039 RMK A01 T10921184  RH  047%=      5-min Rain = 0
KFL1 101039Z 05007KT M10/M19 A3039 RMK A01 T10951186  RH  048%=      5-min Rain = 0
KFL1 101040Z 04007KT M10/M19 A3039 RMK A01 T10991188  RH  048%=      5-min Rain = 0
KFL1 101041Z 04007KT M10/M19 A3039 RMK A01 T10991187  RH  049%=      5-min Rain = 0
KFL1 101042Z 04007KT M10/M19 A3039 RMK A01 T11021189  RH  049%=      5-min Rain = 0
KFL1 101043Z 04006KT M10/M19 A3038 RMK A01 T11031188  RH  050%=      5-min Rain = 0
KFL1 101044Z 04006KT M11/M19 A3038 RMK A01 T11051188  RH  051%=      5-min Rain = 0
KFL1 101045Z 03006KT M11/M19 A3038 RMK A01 T11051185  RH  052%=      5-min Rain = 0
KFL1 101046Z 02006KT M11/M19 A3038 RMK A01 T11101189  RH  052%=      5-min Rain = 0
KFL1 101047Z 02006KT M12/M20 A3038 RMK A01 T11201197  RH  053%=      5-min Rain = 0
KFL1 101048Z 02007KT M13/M20 A3038 RMK A01 T11271199  RH  055%=      5-min Rain = 0
KFL1 101049Z 02006KT M13/M20 A3038 RMK A01 T11341200  RH  058%=      5-min Rain = 0
KFL1 101050Z 03006KT M13/M19 A3038 RMK A01 T11341193  RH  061%=      5-min Rain = 0
KFL1 101051Z 03006KT M13/M18 A3038 RMK A01 T11291184  RH  064%=      5-min Rain = 0
KFL1 101052Z 04006KT M12/M18 A3038 RMK A01 T11231176  RH  064%=      5-min Rain = 0
KFL1 101053Z 05007KT M12/M17 A3038 RMK A01 T11191173  RH  064%=      5-min Rain = 0
KFL1 101054Z 05008KT M12/M17 A3038 RMK A01 T11151172  RH  063%=      5-min Rain = 0
KFL1 101055Z 05008KT M12/M18 A3038 RMK A01 T11161177  RH  060%=      5-min Rain = 0
KFL1 101056Z 05009KT M11/M18 A3038 RMK A01 T11141180  RH  058%=      5-min Rain = 0
KFL1 101057Z 04009KT M11/M18 A3038 RMK A01 T11141183  RH  057%=      5-min Rain = 0
KFL1 101058Z 04010KT M11/M18 A3038 RMK A01 T11131184  RH  056%=      5-min Rain = 0
KFL1 101059Z 04010KT M11/M19 A3038 RMK A01 T11131186  RH  055%=      5-min Rain = 0
KFL1 101100Z 04010KT M11/M19 A3038 RMK A01 T11101186  RH  054%=      5-min Rain = 0
KFL1 101101Z 04011KT M11/M19 A3038 RMK A01 T11101188  RH  052%=      5-min Rain = 0
KFL1 101102Z 04011KT M11/M19 A3038 RMK A01 T11091190  RH  051%=      5-min Rain = 0
KFL1 101103Z 04010KT M11/M19 A3038 RMK A01 T11061189  RH  051%=      5-min Rain = 0
KFL1 101104Z 05010KT M11/M19 A3038 RMK A01 T11071191  RH  050%=      5-min Rain = 0
KFL1 101105Z 05009KT M11/M19 A3038 RMK A01 T11061190  RH  050%=      5-min Rain = 0
KFL1 101106Z 05009KT M11/M19 A3038 RMK A01 T11081192  RH  050%=      5-min Rain = 0
KFL1 101107Z 05008KT M11/M19 A3038 RMK A01 T11061190  RH  050%=      5-min Rain = 0
KFL1 101108Z 05009KT M11/M19 A3037 RMK A01 T11071190  RH  050%=      5-min Rain = 0
KFL1 101109Z 05009KT M11/M19 A3038 RMK A01 T11081191  RH  050%=      5-min Rain = 0
KFL1 101110Z 05009KT M11/M19 A3037 RMK A01 T11071190  RH  050%=      5-min Rain = 0
KFL1 101111Z 04009KT M10/M19 A3037 RMK A01 T11031188  RH  050%=      5-min Rain = 0
KFL1 101112Z 04009KT M10/M19 A3037 RMK A01 T11011188  RH  049%=      5-min Rain = 0
KFL1 101113Z 04009KT M10/M19 A3037 RMK A01 T10981187  RH  048%=      5-min Rain = 0
KFL1 101114Z 05009KT M09/M18 A3037 RMK A01 T10921184  RH  047%=      5-min Rain = 0
KFL1 101115Z 05008KT M09/M19 A3037 RMK A01 T10901185  RH  046%=      5-min Rain = 0
KFL1 101116Z 04008KT M09/M18 A3037 RMK A01 T10871183  RH  046%=      5-min Rain = 0
KFL1 101117Z 04009KT M09/M19 A3037 RMK A01 T10871185  RH  045%=      5-min Rain = 0
KFL1 101118Z 04009KT M09/M19 A3037 RMK A01 T10861185  RH  045%=      5-min Rain = 0
KFL1 101119Z 04008KT M09/M19 A3037 RMK A01 T10851186  RH  044%=      5-min Rain = 0
KFL1 101120Z 04008KT M09/M19 A3037 RMK A01 T10861187  RH  044%=      5-min Rain = 0
KFL1 101121Z 04009KT M09/M19 A3037 RMK A01 T10851187  RH  043%=      5-min Rain = 0
KFL1 101122Z 04008KT M08/M19 A3037 RMK A01 T10821186  RH  043%=      5-min Rain = 0
KFL1 101123Z 04006KT M08/M19 A3037 RMK A01 T10821187  RH  043%=      5-min Rain = 0
KFL1 101124Z 05008KT M08/M19 A3037 RMK A01 T10801186  RH  042%=      5-min Rain = 0
KFL1 101125Z 04007KT M08/M19 A3037 RMK A01 T10801186  RH  042%=      5-min Rain = 0
KFL1 101126Z 04007KT M08/M19 A3037 RMK A01 T10781187  RH  041%=      5-min Rain = 0
KFL1 101127Z 04007KT M08/M19 A3037 RMK A01 T10761185  RH  041%=      5-min Rain = 0
KFL1 101128Z 04007KT M08/M19 A3037 RMK A01 T10771187  RH  041%=      5-min Rain = 0
KFL1 101129Z 04008KT M08/M19 A3037 RMK A01 T10751186  RH  041%=      5-min Rain = 0
KFL1 101130Z 04008KT M08/M19 A3037 RMK A01 T10761188  RH  040%=      5-min Rain = 0
KFL1 101131Z 04008KT M08/M19 A3037 RMK A01 T10771188  RH  040%=      5-min Rain = 0
KFL1 101132Z 04008KT M08/M19 A3037 RMK A01 T10761187  RH  041%=      5-min Rain = 0
KFL1 101133Z 04007KT M08/M19 A3037 RMK A01 T10751187  RH  040%=      5-min Rain = 0
KFL1 101134Z 04007KT M08/M19 A3037 RMK A01 T10751187  RH  040%=      5-min Rain = 0
KFL1 101135Z 04005KT M07/M18 A3037 RMK A01 T10721184  RH  040%=      5-min Rain = 0
KFL1 101136Z 04005KT M07/M19 A3037 RMK A01 T10721185  RH  040%=      5-min Rain = 0
KFL1 101137Z 04006KT M08/M19 A3037 RMK A01 T10781188  RH  041%=      5-min Rain = 0
KFL1 101138Z 04006KT M08/M19 A3037 RMK A01 T10831188  RH  042%=      5-min Rain = 0
KFL1 101139Z 05005KT M09/M19 A3037 RMK A01 T10851186  RH  044%=      5-min Rain = 0
KFL1 101140Z 05005KT M09/M19 A3037 RMK A01 T10861186  RH  044%=      5-min Rain = 0
KFL1 101141Z 04004KT M09/M19 A3037 RMK A01 T10921190  RH  045%=      5-min Rain = 0
KFL1 101142Z 04005KT M10/M19 A3037 RMK A01 T10991193  RH  046%=      5-min Rain = 0
KFL1 101143Z 03005KT M11/M20 A3037 RMK A01 T11131202  RH  048%=      5-min Rain = 0
KFL1 101144Z 03005KT M12/M21 A3037 RMK A01 T11241205  RH  051%=      5-min Rain = 0
KFL1 101145Z 03005KT M13/M20 A3037 RMK A01 T11291203  RH  054%=      5-min Rain = 0
KFL1 101146Z 03006KT M13/M20 A3037 RMK A01 T11291198  RH  056%=      5-min Rain = 0
KFL1 101147Z 02007KT M13/M19 A3037 RMK A01 T11271194  RH  057%=      5-min Rain = 0
KFL1 101148Z 01008KT M12/M19 A3037 RMK A01 T11241190  RH  058%=      5-min Rain = 0
KFL1 101149Z 02007KT M12/M19 A3037 RMK A01 T11241191  RH  057%=      5-min Rain = 0
KFL1 101150Z 03007KT M12/M19 A3037 RMK A01 T11221190  RH  057%=      5-min Rain = 0
KFL1 101151Z 03007KT M13/M20 A3037 RMK A01 T11271195  RH  057%=      5-min Rain = 0
KFL1 101152Z 02007KT M13/M20 A3037 RMK A01 T11321199  RH  057%=      5-min Rain = 0
KFL1 101153Z 03007KT M13/M20 A3037 RMK A01 T11341197  RH  059%=      5-min Rain = 0
KFL1 101154Z 03006KT M13/M19 A3037 RMK A01 T11291191  RH  059%=      5-min Rain = 0
KFL1 101155Z 03007KT M13/M19 A3037 RMK A01 T11271191  RH  059%=      5-min Rain = 0
KFL1 101156Z 03006KT M13/M19 A3038 RMK A01 T11281193  RH  058%=      5-min Rain = 0
KFL1 101157Z 02007KT M13/M20 A3038 RMK A01 T11311195  RH  058%=      5-min Rain = 0
KFL1 101158Z 03007KT M13/M19 A3038 RMK A01 T11301194  RH  059%=      5-min Rain = 0
KFL1 101159Z 03007KT M13/M20 A3038 RMK A01 T11311195  RH  058%=      5-min Rain = 0
KFL1 101200Z 03007KT M13/M20 A3038 RMK A01 T11321196  RH  059%=      5-min Rain = 0
KFL1 101201Z 03007KT M13/M19 A3038 RMK A01 T11301193  RH  059%=      5-min Rain = 0
KFL1 101202Z 03007KT M13/M19 A3038 RMK A01 T11261191  RH  058%=      5-min Rain = 0
KFL1 101203Z 03007KT M13/M20 A3038 RMK A01 T11301197  RH  057%=      5-min Rain = 0
KFL1 101204Z 03007KT M13/M20 A3038 RMK A01 T11341200  RH  058%=      5-min Rain = 0
KFL1 101205Z 03007KT M14/M20 A3038 RMK A01 T11371200  RH  059%=      5-min Rain = 0
KFL1 101206Z 03007KT M14/M20 A3038 RMK A01 T11401200  RH  060%=      5-min Rain = 0
KFL1 101207Z 03007KT M14/M20 A3038 RMK A01 T11391197  RH  062%=      5-min Rain = 0
KFL1 101208Z 03007KT M14/M20 A3038 RMK A01 T11381196  RH  062%=      5-min Rain = 0
KFL1 101209Z 03007KT M14/M19 A3038 RMK A01 T11361193  RH  062%=      5-min Rain = 0
KFL1 101210Z 03007KT M14/M19 A3038 RMK A01 T11351193  RH  061%=      5-min Rain = 0
KFL1 101211Z 03007KT M14/M20 A3038 RMK A01 T11391197  RH  061%=      5-min Rain = 0
KFL1 101212Z 03007KT M14/M20 A3038 RMK A01 T11421199  RH  062%=      5-min Rain = 0
KFL1 101213Z 03008KT M14/M19 A3038 RMK A01 T11371194  RH  062%=      5-min Rain = 0
KFL1 101214Z 03007KT M13/M19 A3038 RMK A01 T11331191  RH  062%=      5-min Rain = 0
KFL1 101215Z 03006KT M13/M19 A3038 RMK A01 T11261187  RH  060%=      5-min Rain = 0
KFL1 101216Z 03006KT M12/M18 A3038 RMK A01 T11161183  RH  058%=      5-min Rain = 0
KFL1 101217Z 03006KT M11/M19 A3038 RMK A01 T11111185  RH  055%=      5-min Rain = 0
KFL1 101218Z 03006KT M13/M20 A3038 RMK A01 T11261203  RH  053%=      5-min Rain = 0
KFL1 101219Z 03005KT M14/M21 A3038 RMK A01 T11361208  RH  054%=      5-min Rain = 0
KFL1 101220Z 04004KT M14/M21 A3038 RMK A01 T11411208  RH  057%=      5-min Rain = 0
KFL1 101221Z 03004KT M14/M21 A3038 RMK A01 T11431205  RH  059%=      5-min Rain = 0
KFL1 101222Z 03004KT M14/M20 A3038 RMK A01 T11411200  RH  061%=      5-min Rain = 0
KFL1 101223Z 03004KT M14/M19 A3038 RMK A01 T11361194  RH  062%=      5-min Rain = 0
KFL1 101224Z 03005KT M13/M19 A3038 RMK A01 T11341192  RH  062%=      5-min Rain = 0
KFL1 101225Z 04003KT M13/M19 A3038 RMK A01 T11341193  RH  061%=      5-min Rain = 0
KFL1 101226Z 04004KT M13/M19 A3038 RMK A01 T11311191  RH  061%=      5-min Rain = 0
KFL1 101227Z 04004KT M13/M19 A3038 RMK A01 T11321193  RH  060%=      5-min Rain = 0
KFL1 101228Z 03004KT M13/M19 A3038 RMK A01 T11311191  RH  061%=      5-min Rain = 0
KFL1 101229Z 04004KT M13/M19 A3038 RMK A01 T11281187  RH  061%=      5-min Rain = 0
KFL1 101230Z 04004KT M13/M19 A3038 RMK A01 T11271188  RH  060%=      5-min Rain = 0
KFL1 101231Z 04004KT M13/M19 A3038 RMK A01 T11291192  RH  059%=      5-min Rain = 0
KFL1 101232Z 05005KT M13/M20 A3038 RMK A01 T11331197  RH  059%=      5-min Rain = 0
KFL1 101233Z 04004KT M13/M20 A3038 RMK A01 T11321195  RH  059%=      5-min Rain = 0
KFL1 101234Z 04004KT M13/M19 A3038 RMK A01 T11311194  RH  059%=      5-min Rain = 0
KFL1 101235Z 03004KT M13/M20 A3038 RMK A01 T11331197  RH  059%=      5-min Rain = 0
KFL1 101236Z 03003KT M14/M20 A3038 RMK A01 T11381200  RH  059%=      5-min Rain = 0
KFL1 101237Z 03003KT M14/M20 A3038 RMK A01 T11381197  RH  061%=      5-min Rain = 0
KFL1 101238Z 03004KT M14/M19 A3038 RMK A01 T11351192  RH  062%=      5-min Rain = 0
KFL1 101239Z 02004KT M13/M19 A3038 RMK A01 T11331190  RH  062%=      5-min Rain = 0
KFL1 101240Z 02004KT M13/M19 A3038 RMK A01 T11311190  RH  061%=      5-min Rain = 0
KFL1 101241Z 02003KT M13/M19 A3038 RMK A01 T11331194  RH  060%=      5-min Rain = 0
KFL1 101242Z 01002KT M14/M20 A3038 RMK A01 T11391200  RH  060%=      5-min Rain = 0
KFL1 101243Z 00002KT M15/M21 A3038 RMK A01 T11451205  RH  060%=      5-min Rain = 0
KFL1 101244Z 00002KT M15/M21 A3038 RMK A01 T11471205  RH  061%=      5-min Rain = 0
KFL1 101245Z 01002KT M15/M20 A3038 RMK A01 T11471203  RH  063%=      5-min Rain = 0
KFL1 101246Z 01003KT M15/M20 A3038 RMK A01 T11471201  RH  064%=      5-min Rain = 0
KFL1 101247Z 02005KT M15/M20 A3038 RMK A01 T11481201  RH  064%=      5-min Rain = 0
KFL1 101248Z 02004KT M14/M19 A3038 RMK A01 T11431194  RH  065%=      5-min Rain = 0
KFL1 101249Z 02004KT M14/M19 A3038 RMK A01 T11371189  RH  065%=      5-min Rain = 0
KFL1 101250Z 02004KT M14/M19 A3038 RMK A01 T11371191  RH  064%=      5-min Rain = 0
KFL1 101251Z 02005KT M14/M19 A3038 RMK A01 T11381193  RH  063%=      5-min Rain = 0
KFL1 101252Z 01005KT M14/M20 A3038 RMK A01 T11411196  RH  063%=      5-min Rain = 0
KFL1 101253Z 02004KT M14/M19 A3038 RMK A01 T11411194  RH  064%=      5-min Rain = 0
KFL1 101254Z 01004KT M14/M19 A3038 RMK A01 T11401192  RH  064%=      5-min Rain = 0
KFL1 101255Z 01005KT M14/M19 A3038 RMK A01 T11361189  RH  064%=      5-min Rain = 0
KFL1 101256Z 02005KT M14/M19 A3038 RMK A01 T11371193  RH  063%=      5-min Rain = 0
KFL1 101257Z 02005KT M14/M19 A3038 RMK A01 T11391194  RH  063%=      5-min Rain = 0
KFL1 101258Z 03004KT M14/M19 A3038 RMK A01 T11361189  RH  064%=      5-min Rain = 0
KFL1 101259Z 02004KT M13/M18 A3038 RMK A01 T11311184  RH  064%=      5-min Rain = 0
KFL1 101300Z 02004KT M13/M19 A3038 RMK A01 T11311186  RH  063%=      5-min Rain = 0
KFL1 101301Z 03004KT M13/M19 A3038 RMK A01 T11321189  RH  062%=      5-min Rain = 0
KFL1 101302Z 03004KT M13/M19 A3038 RMK A01 T11311187  RH  063%=      5-min Rain = 0
KFL1 101303Z 02004KT M13/M19 A3038 RMK A01 T11291185  RH  063%=      5-min Rain = 0
KFL1 101304Z 02004KT M13/M19 A3038 RMK A01 T11311188  RH  062%=      5-min Rain = 0
KFL1 101305Z 01004KT M13/M19 A3038 RMK A01 T11331190  RH  062%=      5-min Rain = 0
KFL1 101306Z 01004KT M14/M19 A3038 RMK A01 T11351192  RH  062%=      5-min Rain = 0
KFL1 101307Z 01004KT M14/M19 A3038 RMK A01 T11381194  RH  063%=      5-min Rain = 0
KFL1 101308Z 03005KT M14/M20 A3038 RMK A01 T11411196  RH  063%=      5-min Rain = 0
KFL1 101309Z 04004KT M14/M20 A3038 RMK A01 T11441198  RH  064%=      5-min Rain = 0
KFL1 101310Z 04004KT M14/M19 A3038 RMK A01 T11401188  RH  067%=      5-min Rain = 0
KFL1 101311Z 03005KT M13/M18 A3038 RMK A01 T11331179  RH  068%=      5-min Rain = 0
KFL1 101312Z 03005KT M13/M17 A3038 RMK A01 T11261173  RH  068%=      5-min Rain = 0
KFL1 101313Z 03005KT M12/M17 A3038 RMK A01 T11241174  RH  066%=      5-min Rain = 0
KFL1 101314Z 03005KT M13/M18 A3038 RMK A01 T11261180  RH  064%=      5-min Rain = 0
KFL1 101315Z 03006KT M14/M19 A3038 RMK A01 T11351193  RH  062%=      5-min Rain = 0
KFL1 101316Z 03006KT M14/M20 A3038 RMK A01 T11401195  RH  063%=      5-min Rain = 0
KFL1 101317Z 03006KT M14/M19 A3038 RMK A01 T11401192  RH  064%=      5-min Rain = 0
KFL1 101318Z 02006KT M14/M19 A3038 RMK A01 T11371188  RH  065%=      5-min Rain = 0
KFL1 101319Z 02006KT M14/M19 A3038 RMK A01 T11371189  RH  065%=      5-min Rain = 0
KFL1 101320Z 02006KT M14/M19 A3038 RMK A01 T11411194  RH  064%=      5-min Rain = 0
KFL1 101321Z 02006KT M15/M20 A3038 RMK A01 T11481200  RH  064%=      5-min Rain = 0
KFL1 101322Z 03006KT M15/M20 A3038 RMK A01 T11501199  RH  066%=      5-min Rain = 0
KFL1 101323Z 03006KT M15/M20 A3038 RMK A01 T11491195  RH  068%=      5-min Rain = 0
KFL1 101324Z 03005KT M15/M19 A3038 RMK A01 T11451188  RH  070%=      5-min Rain = 0
KFL1 101325Z 03006KT M14/M18 A3038 RMK A01 T11401182  RH  071%=      5-min Rain = 0
KFL1 101326Z 03005KT M14/M18 A3038 RMK A01 T11361178  RH  070%=      5-min Rain = 0
KFL1 101327Z 03004KT M14/M18 A3038 RMK A01 T11361181  RH  069%=      5-min Rain = 0
KFL1 101328Z 03006KT M14/M18 A3038 RMK A01 T11361182  RH  068%=      5-min Rain = 0
KFL1 101329Z 03007KT M14/M19 A3038 RMK A01 T11361185  RH  067%=      5-min Rain = 0
KFL1 101330Z 03006KT M14/M19 A3038 RMK A01 T11401190  RH  066%=      5-min Rain = 0
KFL1 101331Z 03006KT M14/M19 A3038 RMK A01 T11411189  RH  067%=      5-min Rain = 0
KFL1 101332Z 04006KT M14/M19 A3038 RMK A01 T11431191  RH  067%=      5-min Rain = 0
KFL1 101333Z 03007KT M14/M19 A3038 RMK A01 T11401185  RH  069%=      5-min Rain = 0
KFL1 101334Z 03007KT M14/M18 A3038 RMK A01 T11351179  RH  069%=      5-min Rain = 0
KFL1 101335Z 03006KT M13/M18 A3038 RMK A01 T11301177  RH  068%=      5-min Rain = 0
KFL1 101336Z 03006KT M13/M18 A3038 RMK A01 T11291179  RH  066%=      5-min Rain = 0
KFL1 101337Z 03006KT M13/M18 A3038 RMK A01 T11301181  RH  066%=      5-min Rain = 0
KFL1 101338Z 03007KT M13/M18 A3038 RMK A01 T11291179  RH  066%=      5-min Rain = 0
KFL1 101339Z 03007KT M13/M17 A3038 RMK A01 T11251174  RH  066%=      5-min Rain = 0
KFL1 101340Z 04008KT M12/M18 A3038 RMK A01 T11231175  RH  065%=      5-min Rain = 0
KFL1 101341Z 04008KT M12/M18 A3038 RMK A01 T11191175  RH  064%=      5-min Rain = 0
KFL1 101342Z 04008KT M12/M17 A3038 RMK A01 T11151174  RH  062%=      5-min Rain = 0
KFL1 101343Z 04007KT M11/M17 A3038 RMK A01 T11091174  RH  059%=      5-min Rain = 0
KFL1 101344Z 04008KT M10/M18 A3038 RMK A01 T11041176  RH  056%=      5-min Rain = 0
KFL1 101345Z 04008KT M10/M18 A3038 RMK A01 T11011178  RH  053%=      5-min Rain = 0
KFL1 101346Z 03008KT M10/M18 A3038 RMK A01 T11021183  RH  051%=      5-min Rain = 0
KFL1 101347Z 04007KT M10/M19 A3038 RMK A01 T11031186  RH  050%=      5-min Rain = 0
KFL1 101348Z 04008KT M11/M19 A3038 RMK A01 T11091192  RH  050%=      5-min Rain = 0
KFL1 101349Z 03008KT M11/M19 A3038 RMK A01 T11101191  RH  051%=      5-min Rain = 0
KFL1 101350Z 03009KT M11/M19 A3038 RMK A01 T11131193  RH  052%=      5-min Rain = 0
KFL1 101351Z 03008KT M11/M19 A3038 RMK A01 T11141192  RH  052%=      5-min Rain = 0
KFL1 101352Z 04008KT M11/M19 A3038 RMK A01 T11131191  RH  052%=      5-min Rain = 0
KFL1 101353Z 04007KT M11/M19 A3038 RMK A01 T11101189  RH  052%=      5-min Rain = 0
KFL1 101354Z 04007KT M11/M19 A3038 RMK A01 T11051187  RH  051%=      5-min Rain = 0
KFL1 101355Z 04007KT M10/M18 A3038 RMK A01 T10991183  RH  050%=      5-min Rain = 0
KFL1 101356Z 05006KT M10/M19 A3038 RMK A01 T10981185  RH  049%=      5-min Rain = 0
KFL1 101357Z 04007KT M10/M19 A3038 RMK A01 T10981186  RH  048%=      5-min Rain = 0
KFL1 101358Z 04008KT M10/M19 A3038 RMK A01 T10961185  RH  048%=      5-min Rain = 0
KFL1 101359Z 04009KT M10/M19 A3038 RMK A01 T10971186  RH  048%=      5-min Rain = 0
KFL1 101400Z 05008KT M10/M19 A3038 RMK A01 T10961185  RH  048%=      5-min Rain = 0
KFL1 101401Z 05009KT M10/M19 A3038 RMK A01 T10951185  RH  048%=      5-min Rain = 0
KFL1 101402Z 05009KT M10/M19 A3038 RMK A01 T10951186  RH  048%=      5-min Rain = 0
KFL1 101403Z 04009KT M09/M19 A3038 RMK A01 T10941185  RH  047%=      5-min Rain = 0
KFL1 101404Z 04008KT M09/M19 A3038 RMK A01 T10941187  RH  047%=      5-min Rain = 0
KFL1 101405Z 04009KT M09/M19 A3038 RMK A01 T10941187  RH  047%=      5-min Rain = 0
KFL1 101406Z 04008KT M09/M19 A3038 RMK A01 T10921185  RH  047%=      5-min Rain = 0
KFL1 101407Z 05007KT M09/M19 A3038 RMK A01 T10931186  RH  047%=      5-min Rain = 0
KFL1 101408Z 05007KT M09/M19 A3038 RMK A01 T10921187  RH  046%=      5-min Rain = 0
KFL1 101409Z 05006KT M09/M18 A3038 RMK A01 T10891184  RH  046%=      5-min Rain = 0
KFL1 101410Z 04006KT M09/M19 A3038 RMK A01 T10891186  RH  045%=      5-min Rain = 0
KFL1 101411Z 05007KT M09/M19 A3038 RMK A01 T10881186  RH  045%=      5-min Rain = 0
KFL1 101412Z 04007KT M09/M19 A3038 RMK A01 T10861185  RH  045%=      5-min Rain = 0
KFL1 101413Z 04007KT M09/M18 A3038 RMK A01 T10851184  RH  044%=      5-min Rain = 0
KFL1 101414Z 05007KT M08/M19 A3038 RMK A01 T10841185  RH  044%=      5-min Rain = 0
KFL1 101415Z 04007KT M09/M19 A3038 RMK A01 T10851187  RH  044%=      5-min Rain = 0
KFL1 101416Z 05007KT M09/M19 A3038 RMK A01 T10851187  RH  044%=      5-min Rain = 0
KFL1 101417Z 05007KT M08/M19 A3038 RMK A01 T10841186  RH  044%=      5-min Rain = 0
KFL1 101418Z 05006KT M09/M19 A3038 RMK A01 T10851188  RH  043%=      5-min Rain = 0
KFL1 101419Z 05007KT M08/M19 A3038 RMK A01 T10831186  RH  043%=      5-min Rain = 0
KFL1 101420Z 05007KT M08/M19 A3038 RMK A01 T10821187  RH  043%=      5-min Rain = 0
KFL1 101421Z 04007KT M08/M19 A3038 RMK A01 T10821187  RH  043%=      5-min Rain = 0
KFL1 101422Z 04008KT M08/M19 A3038 RMK A01 T10801186  RH  042%=      5-min Rain = 0
KFL1 101423Z 04007KT M08/M19 A3038 RMK A01 T10791186  RH  042%=      5-min Rain = 0
KFL1 101424Z 04007KT M08/M19 A3038 RMK A01 T10781186  RH  041%=      5-min Rain = 0
KFL1 101425Z 04008KT M08/M19 A3038 RMK A01 T10781188  RH  041%=      5-min Rain = 0
KFL1 101426Z 04008KT M08/M19 A3038 RMK A01 T10751188  RH  040%=      5-min Rain = 0
KFL1 101427Z 04008KT M07/M19 A3038 RMK A01 T10721187  RH  039%=      5-min Rain = 0
KFL1 101428Z 04007KT M07/M19 A3038 RMK A01 T10721188  RH  039%=      5-min Rain = 0
KFL1 101429Z 03007KT M07/M19 A3038 RMK A01 T10711190  RH  038%=      5-min Rain = 0
KFL1 101430Z 03006KT M07/M19 A3038 RMK A01 T10681188  RH  038%=      5-min Rain = 0
KFL1 101431Z 04006KT M07/M19 A3038 RMK A01 T10691190  RH  037%=      5-min Rain = 0
KFL1 101432Z 03007KT M07/M19 A3039 RMK A01 T10711191  RH  038%=      5-min Rain = 0
KFL1 101433Z 04007KT M07/M19 A3038 RMK A01 T10731192  RH  038%=      5-min Rain = 0
KFL1 101434Z 04007KT M07/M19 A3039 RMK A01 T10731190  RH  039%=      5-min Rain = 0
KFL1 101435Z 03007KT M08/M19 A3038 RMK A01 T10751192  RH  039%=      5-min Rain = 0
KFL1 101436Z 03007KT M08/M19 A3038 RMK A01 T10791193  RH  039%=      5-min Rain = 0
KFL1 101437Z 04006KT M08/M19 A3038 RMK A01 T10831193  RH  040%=      5-min Rain = 0
KFL1 101438Z 04006KT M09/M19 A3038 RMK A01 T10851192  RH  041%=      5-min Rain = 0
KFL1 101439Z 04006KT M08/M19 A3039 RMK A01 T10831190  RH  042%=      5-min Rain = 0
KFL1 101440Z 03007KT M08/M19 A3039 RMK A01 T10771185  RH  042%=      5-min Rain = 0
KFL1 101441Z 04006KT M07/M19 A3039 RMK A01 T10741185  RH  041%=      5-min Rain = 0
KFL1 101442Z 04007KT M07/M19 A3039 RMK A01 T10711185  RH  040%=      5-min Rain = 0
KFL1 101443Z 04007KT M07/M18 A3038 RMK A01 T10671182  RH  040%=      5-min Rain = 0
KFL1 101444Z 04007KT M07/M18 A3038 RMK A01 T10681183  RH  040%=      5-min Rain = 0
KFL1 101445Z 04007KT M07/M18 A3038 RMK A01 T10671181  RH  040%=      5-min Rain = 0
KFL1 101446Z 04008KT M07/M19 A3038 RMK A01 T10711185  RH  040%=      5-min Rain = 0
KFL1 101447Z 04008KT M07/M19 A3038 RMK A01 T10721186  RH  040%=      5-min Rain = 0
KFL1 101448Z 04007KT M07/M19 A3038 RMK A01 T10711186  RH  040%=      5-min Rain = 0
KFL1 101449Z 04007KT M07/M19 A3038 RMK A01 T10701187  RH  039%=      5-min Rain = 0
KFL1 101450Z 03007KT M07/M19 A3038 RMK A01 T10691187  RH  038%=      5-min Rain = 0
KFL1 101451Z 04007KT M07/M19 A3038 RMK A01 T10651186  RH  038%=      5-min Rain = 0
KFL1 101452Z 04007KT M06/M19 A3038 RMK A01 T10641187  RH  037%=      5-min Rain = 0
KFL1 101453Z 04006KT M06/M19 A3038 RMK A01 T10611185  RH  037%=      5-min Rain = 0
KFL1 101454Z 04006KT M06/M19 A3038 RMK A01 T10611186  RH  036%=      5-min Rain = 0
KFL1 101455Z 04006KT M06/M18 A3038 RMK A01 T10561183  RH  036%=      5-min Rain = 0
KFL1 101456Z 05006KT M06/M19 A3038 RMK A01 T10571185  RH  036%=      5-min Rain = 0
KFL1 101457Z 04006KT M06/M19 A3038 RMK A01 T10571185  RH  036%=      5-min Rain = 0
KFL1 101458Z 04006KT M06/M18 A3038 RMK A01 T10571184  RH  036%=      5-min Rain = 0
KFL1 101459Z 04006KT M06/M18 A3038 RMK A01 T10571183  RH  036%=      5-min Rain = 0
KFL1 101500Z 05006KT M06/M19 A3038 RMK A01 T10601185  RH  036%=      5-min Rain = 0
KFL1 101501Z 04007KT M06/M18 A3038 RMK A01 T10601184  RH  037%=      5-min Rain = 0
KFL1 101502Z 05008KT M06/M18 A3038 RMK A01 T10601184  RH  037%=      5-min Rain = 0
KFL1 101503Z 04008KT M06/M19 A3038 RMK A01 T10611185  RH  037%=      5-min Rain = 0
KFL1 101504Z 04008KT M06/M18 A3038 RMK A01 T10601184  RH  037%=      5-min Rain = 0
KFL1 101505Z 04007KT M06/M19 A3038 RMK A01 T10601185  RH  037%=      5-min Rain = 0
KFL1 101506Z 04008KT M06/M18 A3038 RMK A01 T10571183  RH  036%=      5-min Rain = 0
KFL1 101507Z 04006KT M06/M18 A3038 RMK A01 T10571184  RH  036%=      5-min Rain = 0
KFL1 101508Z 04006KT M06/M19 A3038 RMK A01 T10561185  RH  036%=      5-min Rain = 0
KFL1 101509Z 04006KT M06/M18 A3038 RMK A01 T10551183  RH  036%=      5-min Rain = 0
KFL1 101510Z 03005KT M05/M18 A3039 RMK A01 T10521182  RH  035%=      5-min Rain = 0
KFL1 101511Z 03004KT M05/M18 A3039 RMK A01 T10531184  RH  035%=      5-min Rain = 0
KFL1 101512Z 03004KT M06/M19 A3039 RMK A01 T10551185  RH  035%=      5-min Rain = 0
KFL1 101513Z 03004KT M08/M20 A3039 RMK A01 T10761195  RH  038%=      5-min Rain = 0
KFL1 101514Z 02004KT M09/M20 A3039 RMK A01 T10931198  RH  042%=      5-min Rain = 0
KFL1 101515Z 02006KT M10/M19 A3039 RMK A01 T11001194  RH  046%=      5-min Rain = 0
KFL1 101516Z 00006KT M10/M19 A3039 RMK A01 T11031189  RH  049%=      5-min Rain = 0
KFL1 101517Z 00006KT M10/M19 A3039 RMK A01 T11031186  RH  050%=      5-min Rain = 0
KFL1 101518Z 36006KT M10/M19 A3039 RMK A01 T11021185  RH  051%=      5-min Rain = 0
KFL1 101519Z 36006KT M10/M18 A3039 RMK A01 T11001184  RH  050%=      5-min Rain = 0
KFL1 101520Z 00006KT M10/M18 A3039 RMK A01 T10971182  RH  050%=      5-min Rain = 0
KFL1 101521Z 00006KT M09/M18 A3039 RMK A01 T10941182  RH  049%=      5-min Rain = 0
KFL1 101522Z 00006KT M09/M18 A3039 RMK A01 T10911182  RH  048%=      5-min Rain = 0
KFL1 101523Z 35006KT M09/M18 A3039 RMK A01 T10881181  RH  047%=      5-min Rain = 0
KFL1 101524Z 36006KT M09/M18 A3039 RMK A01 T10881182  RH  046%=      5-min Rain = 0
KFL1 101525Z 35006KT M09/M18 A3039 RMK A01 T10851181  RH  046%=      5-min Rain = 0
KFL1 101526Z 35006KT M09/M18 A3039 RMK A01 T10851182  RH  045%=      5-min Rain = 0
KFL1 101527Z 36006KT M08/M18 A3039 RMK A01 T10831180  RH  045%=      5-min Rain = 0
KFL1 101528Z 36006KT M09/M18 A3039 RMK A01 T10851183  RH  045%=      5-min Rain = 0
KFL1 101529Z 35006KT M09/M18 A3039 RMK A01 T10861182  RH  046%=      5-min Rain = 0
KFL1 101530Z 35006KT M09/M18 A3039 RMK A01 T10851181  RH  046%=      5-min Rain = 0
KFL1 101531Z 35006KT M09/M18 A3039 RMK A01 T10861181  RH  046%=      5-min Rain = 0
KFL1 101532Z 35006KT M09/M18 A3039 RMK A01 T10871181  RH  046%=      5-min Rain = 0
KFL1 101533Z 35005KT M08/M18 A3039 RMK A01 T10841178  RH  046%=      5-min Rain = 0
KFL1 101534Z 35005KT M08/M18 A3039 RMK A01 T10811178  RH  046%=      5-min Rain = 0
KFL1 101535Z 35005KT M08/M18 A3039 RMK A01 T10781177  RH  045%=      5-min Rain = 0
KFL1 101536Z 36005KT M08/M18 A3039 RMK A01 T10751175  RH  045%=      5-min Rain = 0
KFL1 101537Z 36005KT M07/M17 A3039 RMK A01 T10741174  RH  044%=      5-min Rain = 0
KFL1 101538Z 36005KT M07/M17 A3039 RMK A01 T10701173  RH  044%=      5-min Rain = 0
KFL1 101539Z 35005KT M07/M17 A3039 RMK A01 T10701174  RH  043%=      5-min Rain = 0
KFL1 101540Z 36005KT M07/M18 A3039 RMK A01 T10701175  RH  043%=      5-min Rain = 0
KFL1 101541Z 36005KT M07/M17 A3039 RMK A01 T10701174  RH  043%=      5-min Rain = 0
KFL1 101542Z 01005KT M07/M17 A3039 RMK A01 T10681174  RH  043%=      5-min Rain = 0
KFL1 101543Z 02004KT M06/M17 A3039 RMK A01 T10641174  RH  041%=      5-min Rain = 0
KFL1 101544Z 02004KT M06/M17 A3039 RMK A01 T10581173  RH  040%=      5-min Rain = 0
KFL1 101545Z 03004KT M06/M17 A3039 RMK A01 T10571174  RH  039%=      5-min Rain = 0
KFL1 101546Z 04004KT M05/M17 A3039 RMK A01 T10541173  RH  039%=      5-min Rain = 0
KFL1 101547Z 04003KT M05/M17 A3039 RMK A01 T10531174  RH  038%=      5-min Rain = 0
KFL1 101548Z 05003KT M05/M17 A3039 RMK A01 T10501173  RH  037%=      5-min Rain = 0
KFL1 101549Z 06003KT M05/M17 A3039 RMK A01 T10491174  RH  037%=      5-min Rain = 0
KFL1 101550Z 05003KT M05/M17 A3039 RMK A01 T10451168  RH  038%=      5-min Rain = 0
KFL1 101551Z 05002KT M04/M16 A3039 RMK A01 T10401162  RH  038%=      5-min Rain = 0
KFL1 101552Z 06004KT M04/M16 A3039 RMK A01 T10371162  RH  037%=      5-min Rain = 0
KFL1 101553Z 06004KT M03/M16 A3039 RMK A01 T10341163  RH  036%=      5-min Rain = 0
KFL1 101554Z 05004KT M03/M17 A3039 RMK A01 T10321166  RH  035%=      5-min Rain = 0
KFL1 101555Z 06004KT M03/M17 A3039 RMK A01 T10311168  RH  034%=      5-min Rain = 0
KFL1 101556Z 05004KT M03/M17 A3039 RMK A01 T10281169  RH  033%=      5-min Rain = 0
KFL1 101557Z 05004KT M03/M17 A3039 RMK A01 T10281172  RH  032%=      5-min Rain = 0
KFL1 101558Z 05004KT M03/M17 A3039 RMK A01 T10261170  RH  032%=      5-min Rain = 0
KFL1 101559Z 05005KT M03/M17 A3039 RMK A01 T10271172  RH  032%=      5-min Rain = 0
KFL1 101600Z 05004KT M03/M17 A3039 RMK A01 T10261173  RH  031%=      5-min Rain = 0
KFL1 101601Z 05004KT M02/M17 A3039 RMK A01 T10241170  RH  031%=      5-min Rain = 0
KFL1 101602Z 06003KT M02/M17 A3039 RMK A01 T10231171  RH  031%=      5-min Rain = 0
KFL1 101603Z 05004KT M02/M17 A3039 RMK A01 T10221171  RH  031%=      5-min Rain = 0
KFL1 101604Z 05003KT M02/M17 A3039 RMK A01 T10181172  RH  030%=      5-min Rain = 0
KFL1 101605Z 07003KT M02/M18 A3039 RMK A01 T10181177  RH  029%=      5-min Rain = 0
KFL1 101606Z 06002KT M02/M18 A3039 RMK A01 T10161176  RH  028%=      5-min Rain = 0
KFL1 101607Z 06002KT M02/M17 A3039 RMK A01 T10151174  RH  029%=      5-min Rain = 0
KFL1 101608Z 06003KT M01/M17 A3039 RMK A01 T10141172  RH  029%=      5-min Rain = 0
KFL1 101609Z 05002KT M01/M17 A3039 RMK A01 T10141171  RH  029%=      5-min Rain = 0
KFL1 101610Z 04001KT M02/M17 A3039 RMK A01 T10151172  RH  029%=      5-min Rain = 0
KFL1 101611Z 07002KT M02/M17 A3039 RMK A01 T10151172  RH  029%=      5-min Rain = 0
KFL1 101612Z 07002KT M01/M17 A3039 RMK A01 T10131171  RH  029%=      5-min Rain = 0
KFL1 101613Z 07002KT M01/M18 A3039 RMK A01 T10141176  RH  028%=      5-min Rain = 0
KFL1 101614Z 07002KT M01/M18 A3039 RMK A01 T10121177  RH  027%=      5-min Rain = 0
KFL1 101615Z 08002KT M01/M17 A3039 RMK A01 T10121172  RH  028%=      5-min Rain = 0
KFL1 101616Z 08002KT M01/M17 A3039 RMK A01 T10101167  RH  029%=      5-min Rain = 0
KFL1 101617Z 09002KT M01/M17 A3039 RMK A01 T10091172  RH  028%=      5-min Rain = 0
KFL1 101618Z 09001KT M01/M17 A304 RMK A01 T10071168  RH  028%=      5-min Rain = 0
KFL1 101619Z 13000KT M01/M17 A304 RMK A01 T10081174  RH  027%=      5-min Rain = 0
KFL1 101620Z 11001KT M01/M17 A304 RMK A01 T10061173  RH  027%=      5-min Rain = 0
KFL1 101621Z 13001KT M00/M17 A304 RMK A01 T10011166  RH  028%=      5-min Rain = 0
KFL1 101622Z 12001KT 00/M17 A304 RMK A01 T00021169  RH  027%=      5-min Rain = 0
KFL1 101623Z 10002KT 00/M17 A304 RMK A01 T00031172  RH  026%=      5-min Rain = 0
KFL1 101624Z 10002KT 01/M17 A304 RMK A01 T00071168  RH  026%=      5-min Rain = 0
KFL1 101625Z 08001KT 01/M16 A304 RMK A01 T00071160  RH  027%=      5-min Rain = 0
KFL1 101626Z 09001KT 01/M16 A304 RMK A01 T00091161  RH  027%=      5-min Rain = 0
KFL1 101627Z 11001KT 01/M17 A304 RMK A01 T00081168  RH  025%=      5-min Rain = 0
KFL1 101628Z 08001KT 01/M17 A304 RMK A01 T00111168  RH  025%=      5-min Rain = 0
KFL1 101629Z 09001KT 01/M17 A304 RMK A01 T00091166  RH  026%=      5-min Rain = 0
KFL1 101630Z 09001KT 01/M17 A304 RMK A01 T00071169  RH  025%=      5-min Rain = 0
KFL1 101631Z 09001KT 01/M17 A304 RMK A01 T00071169  RH  025%=      5-min Rain = 0
KFL1 101632Z 10001KT 01/M18 A304 RMK A01 T00061175  RH  024%=      5-min Rain = 0
KFL1 101633Z 09001KT 01/M17 A304 RMK A01 T00051168  RH  026%=      5-min Rain = 0
KFL1 101634Z 09002KT 01/M16 A304 RMK A01 T00071163  RH  027%=      5-min Rain = 0
KFL1 101635Z 07002KT 01/M17 A304 RMK A01 T00051171  RH  025%=      5-min Rain = 0
KFL1 101636Z 10002KT 01/M17 A304 RMK A01 T00051167  RH  026%=      5-min Rain = 0
KFL1 101637Z 11001KT 01/M17 A304 RMK A01 T00061171  RH  025%=      5-min Rain = 0
KFL1 101638Z 11002KT 01/M17 A304 RMK A01 T00091171  RH  025%=      5-min Rain = 0
KFL1 101639Z 10001KT 01/M17 A304 RMK A01 T00101174  RH  024%=      5-min Rain = 0
KFL1 101640Z 09002KT 01/M18 A304 RMK A01 T00081177  RH  024%=      5-min Rain = 0
KFL1 101641Z 09006KT 01/M17 A304 RMK A01 T00081167  RH  026%=      5-min Rain = 0
KFL1 101642Z 09004KT 01/M16 A304 RMK A01 T00071163  RH  027%=      5-min Rain = 0
KFL1 101643Z 10003KT 01/M16 A304 RMK A01 T00061163  RH  027%=      5-min Rain = 0
KFL1 101644Z 10004KT 00/M17 A304 RMK A01 T00041166  RH  027%=      5-min Rain = 0
KFL1 101645Z 09005KT 01/M16 A304 RMK A01 T00051158  RH  028%=      5-min Rain = 0
KFL1 101646Z 11004KT 00/M16 A304 RMK A01 T00041159  RH  028%=      5-min Rain = 0
KFL1 101647Z 09005KT 00/M15 A304 RMK A01 T00041149  RH  031%=      5-min Rain = 0
KFL1 101648Z 09004KT 00/M15 A304 RMK A01 T00021154  RH  030%=      5-min Rain = 0
KFL1 101649Z 08005KT 00/M16 A304 RMK A01 T00041159  RH  028%=      5-min Rain = 0
KFL1 101650Z 09006KT 00/M16 A304 RMK A01 T00031163  RH  028%=      5-min Rain = 0
KFL1 101651Z 09005KT 00/M18 A304 RMK A01 T00031177  RH  025%=      5-min Rain = 0
KFL1 101652Z 08005KT 00/M18 A304 RMK A01 T00041177  RH  024%=      5-min Rain = 0
KFL1 101653Z 08005KT 01/M17 A3041 RMK A01 T00061174  RH  025%=      5-min Rain = 0
KFL1 101654Z 09005KT 01/M17 A3041 RMK A01 T00061173  RH  025%=      5-min Rain = 0
KFL1 101655Z 09004KT 01/M16 A3041 RMK A01 T00061160  RH  028%=      5-min Rain = 0
KFL1 101656Z 09004KT 01/M16 A3041 RMK A01 T00071163  RH  027%=      5-min Rain = 0
KFL1 101657Z 08004KT 01/M17 A3041 RMK A01 T00061171  RH  025%=      5-min Rain = 0
KFL1 101658Z 08004KT 01/M16 A3041 RMK A01 T00061164  RH  027%=      5-min Rain = 0
KFL1 101659Z 08004KT 01/M16 A3041 RMK A01 T00061162  RH  027%=      5-min Rain = 0
KFL1 101700Z 09004KT 01/M15 A3041 RMK A01 T00061148  RH  031%=      5-min Rain = 0
KFL1 101701Z 08004KT 01/M15 A3041 RMK A01 T00071152  RH  029%=      5-min Rain = 0
KFL1 101702Z 09004KT 01/M16 A3041 RMK A01 T00061155  RH  029%=      5-min Rain = 0
KFL1 101703Z 08004KT 01/M16 A3041 RMK A01 T00061161  RH  028%=      5-min Rain = 0
KFL1 101704Z 09003KT 01/M16 A3041 RMK A01 T00071158  RH  028%=      5-min Rain = 0
KFL1 101705Z 10002KT 01/M16 A3041 RMK A01 T00061162  RH  027%=      5-min Rain = 0
KFL1 101706Z 07003KT 01/M16 A3041 RMK A01 T00091162  RH  026%=      5-min Rain = 0
KFL1 101707Z 07004KT 01/M17 A3041 RMK A01 T00091170  RH  025%=      5-min Rain = 0
KFL1 101708Z 08004KT 01/M17 A3041 RMK A01 T00081174  RH  024%=      5-min Rain = 0
KFL1 101709Z 08005KT 01/M16 A3041 RMK A01 T00091164  RH  026%=      5-min Rain = 0
KFL1 101710Z 07004KT 01/M16 A3041 RMK A01 T00101163  RH  026%=      5-min Rain = 0
KFL1 101711Z 07003KT 01/M16 A3041 RMK A01 T00081160  RH  027%=      5-min Rain = 0
KFL1 101712Z 07004KT 01/M15 A3041 RMK A01 T00081151  RH  029%=      5-min Rain = 0
KFL1 101713Z 08004KT 01/M14 A3041 RMK A01 T00071140  RH  032%=      5-min Rain = 0
KFL1 101714Z 09003KT 01/M14 A3041 RMK A01 T00071141  RH  032%=      5-min Rain = 0
KFL1 101715Z 09003KT 01/M14 A3041 RMK A01 T00061142  RH  032%=      5-min Rain = 0
KFL1 101716Z 08003KT 01/M15 A3041 RMK A01 T00091151  RH  029%=      5-min Rain = 0
KFL1 101717Z 09002KT 01/M15 A3041 RMK A01 T00091149  RH  030%=      5-min Rain = 0
KFL1 101718Z 09004KT 01/M14 A3041 RMK A01 T00111140  RH  032%=      5-min Rain = 0
KFL1 101719Z 08004KT 01/M15 A3041 RMK A01 T00111148  RH  029%=      5-min Rain = 0
KFL1 101720Z 08003KT 01/M15 A3041 RMK A01 T00121150  RH  029%=      5-min Rain = 0
KFL1 101721Z 07003KT 01/M15 A3041 RMK A01 T00101147  RH  030%=      5-min Rain = 0
KFL1 101722Z 09003KT 01/M14 A3041 RMK A01 T00111139  RH  032%=      5-min Rain = 0
KFL1 101723Z 08003KT 01/M15 A3041 RMK A01 T00131148  RH  029%=      5-min Rain = 0
KFL1 101724Z 06002KT 01/M15 A3041 RMK A01 T00121147  RH  029%=      5-min Rain = 0
KFL1 101725Z 09004KT 01/M15 A3041 RMK A01 T00111151  RH  029%=      5-min Rain = 0
KFL1 101726Z 09005KT 01/M15 A3041 RMK A01 T00121153  RH  028%=      5-min Rain = 0
KFL1 101727Z 10005KT 01/M15 A3041 RMK A01 T00121149  RH  029%=      5-min Rain = 0
KFL1 101728Z 09005KT 01/M15 A3041 RMK A01 T00111152  RH  029%=      5-min Rain = 0
KFL1 101729Z 08005KT 01/M15 A3041 RMK A01 T00121153  RH  028%=      5-min Rain = 0
KFL1 101730Z 08004KT 01/M15 A3041 RMK A01 T00111153  RH  028%=      5-min Rain = 0
KFL1 101731Z 10003KT 01/M15 A3041 RMK A01 T00111154  RH  028%=      5-min Rain = 0
KFL1 101732Z 09003KT 01/M15 A3041 RMK A01 T00111150  RH  029%=      5-min Rain = 0
KFL1 101733Z 09002KT 01/M15 A3041 RMK A01 T00121153  RH  028%=      5-min Rain = 0
KFL1 101734Z 07004KT 01/M16 A3041 RMK A01 T00111158  RH  027%=      5-min Rain = 0
KFL1 101735Z 09004KT 01/M15 A3041 RMK A01 T00121152  RH  028%=      5-min Rain = 0
KFL1 101736Z 09003KT 01/M14 A3041 RMK A01 T00131142  RH  030%=      5-min Rain = 0
KFL1 101737Z 09004KT 01/M14 A3041 RMK A01 T00141137  RH  032%=      5-min Rain = 0
KFL1 101738Z 10003KT 02/M15 A3041 RMK A01 T00171146  RH  029%=      5-min Rain = 0
KFL1 101739Z 10003KT 02/M15 A3041 RMK A01 T00161146  RH  029%=      5-min Rain = 0
KFL1 101740Z 10003KT 02/M15 A3041 RMK A01 T00191145  RH  029%=      5-min Rain = 0
KFL1 101741Z 09003KT 02/M15 A3041 RMK A01 T00171152  RH  027%=      5-min Rain = 0
KFL1 101742Z 10002KT 02/M15 A3041 RMK A01 T00181145  RH  029%=      5-min Rain = 0
KFL1 101743Z 09002KT 02/M15 A3041 RMK A01 T00201150  RH  027%=      5-min Rain = 0
KFL1 101744Z 09002KT 02/M16 A3041 RMK A01 T00181155  RH  026%=      5-min Rain = 0
KFL1 101745Z 08002KT 02/M15 A3041 RMK A01 T00161153  RH  027%=      5-min Rain = 0
KFL1 101746Z 08001KT 02/M16 A3041 RMK A01 T00191155  RH  026%=      5-min Rain = 0
KFL1 101747Z 10002KT 02/M15 A3041 RMK A01 T00211150  RH  027%=      5-min Rain = 0
KFL1 101748Z 10002KT 03/M15 A3041 RMK A01 T00251150  RH  026%=      5-min Rain = 0
KFL1 101749Z 12002KT 03/M16 A3041 RMK A01 T00251157  RH  025%=      5-min Rain = 0
KFL1 101750Z 11001KT 03/M16 A3041 RMK A01 T00261156  RH  025%=      5-min Rain = 0
KFL1 101751Z 15002KT 03/M16 A3041 RMK A01 T00261155  RH  025%=      5-min Rain = 0
KFL1 101752Z 13002KT 03/M15 A304 RMK A01 T00261152  RH  026%=      5-min Rain = 0
KFL1 101753Z 15002KT 03/M14 A304 RMK A01 T00271143  RH  027%=      5-min Rain = 0
KFL1 101754Z 12002KT 03/M14 A304 RMK A01 T00291141  RH  027%=      5-min Rain = 0
KFL1 101755Z 13002KT 03/M14 A304 RMK A01 T00281144  RH  027%=      5-min Rain = 0
KFL1 101756Z 15001KT 03/M15 A304 RMK A01 T00281149  RH  026%=      5-min Rain = 0
KFL1 101757Z 12002KT 03/M15 A304 RMK A01 T00271148  RH  026%=      5-min Rain = 0
KFL1 101758Z 14002KT 03/M15 A304 RMK A01 T00261146  RH  027%=      5-min Rain = 0
KFL1 101759Z 14003KT 02/M14 A304 RMK A01 T00241142  RH  028%=      5-min Rain = 0
KFL1 101800Z 15003KT 02/M14 A304 RMK A01 T00231142  RH  028%=      5-min Rain = 0
KFL1 101801Z 15004KT 02/M14 A304 RMK A01 T00241141  RH  028%=      5-min Rain = 0
KFL1 101802Z 15003KT 02/M14 A304 RMK A01 T00221140  RH  029%=      5-min Rain = 0
KFL1 101803Z 16003KT 02/M14 A304 RMK A01 T00231141  RH  029%=      5-min Rain = 0
KFL1 101804Z 15003KT 02/M14 A304 RMK A01 T00231141  RH  029%=      5-min Rain = 0
KFL1 101805Z 14003KT 02/M14 A304 RMK A01 T00231141  RH  029%=      5-min Rain = 0
KFL1 101806Z 14003KT 02/M14 A304 RMK A01 T00231139  RH  029%=      5-min Rain = 0
KFL1 101807Z 13003KT 02/M14 A304 RMK A01 T00241140  RH  029%=      5-min Rain = 0
KFL1 101808Z 13002KT 02/M15 A304 RMK A01 T00241146  RH  027%=      5-min Rain = 0
KFL1 101809Z 14002KT 02/M15 A304 RMK A01 T00231147  RH  027%=      5-min Rain = 0
KFL1 101810Z 13001KT 03/M14 A304 RMK A01 T00251143  RH  028%=      5-min Rain = 0
KFL1 101811Z 13001KT 03/M14 A304 RMK A01 T00251143  RH  028%=      5-min Rain = 0
KFL1 101812Z 14000KT 03/M14 A304 RMK A01 T00261140  RH  028%=      5-min Rain = 0
KFL1 101813Z 15003KT 03/M14 A304 RMK A01 T00261138  RH  029%=      5-min Rain = 0
KFL1 101814Z 15003KT 03/M14 A3039 RMK A01 T00271135  RH  029%=      5-min Rain = 0
KFL1 101815Z 15003KT 03/M14 A3039 RMK A01 T00301135  RH  029%=      5-min Rain = 0
KFL1 101816Z 15003KT 03/M14 A3039 RMK A01 T00291139  RH  028%=      5-min Rain = 0
KFL1 101817Z 16003KT 03/M14 A3039 RMK A01 T00291137  RH  028%=      5-min Rain = 0
KFL1 101818Z 15002KT 03/M14 A3039 RMK A01 T00291137  RH  028%=      5-min Rain = 0
KFL1 101819Z 15002KT 03/M14 A3039 RMK A01 T00271140  RH  028%=      5-min Rain = 0
KFL1 101820Z 15002KT 03/M13 A3039 RMK A01 T00291134  RH  029%=      5-min Rain = 0
KFL1 101821Z 15002KT 03/M14 A3039 RMK A01 T00291136  RH  029%=      5-min Rain = 0
KFL1 101822Z 14002KT 03/M13 A3039 RMK A01 T00321130  RH  029%=      5-min Rain = 0
KFL1 101823Z 15003KT 03/M14 A3039 RMK A01 T00301135  RH  029%=      5-min Rain = 0
KFL1 101824Z 14002KT 03/M13 A3039 RMK A01 T00281134  RH  029%=      5-min Rain = 0
KFL1 101825Z 17001KT 03/M13 A3039 RMK A01 T00291126  RH  031%=      5-min Rain = 0
KFL1 101826Z 17001KT 03/M13 A3039 RMK A01 T00321129  RH  030%=      5-min Rain = 0
KFL1 101827Z 13002KT 03/M13 A3038 RMK A01 T00321134  RH  028%=      5-min Rain = 0
KFL1 101828Z 14002KT 03/M13 A3038 RMK A01 T00331133  RH  028%=      5-min Rain = 0
KFL1 101829Z 14002KT 03/M13 A3038 RMK A01 T00311128  RH  030%=      5-min Rain = 0
KFL1 101830Z 14003KT 03/M13 A3038 RMK A01 T00311132  RH  029%=      5-min Rain = 0
KFL1 101831Z 13003KT 03/M13 A3038 RMK A01 T00311131  RH  030%=      5-min Rain = 0
KFL1 101832Z 13002KT 03/M13 A3038 RMK A01 T00291131  RH  030%=      5-min Rain = 0
KFL1 101833Z 13003KT 03/M13 A3038 RMK A01 T00311128  RH  030%=      5-min Rain = 0
KFL1 101834Z 14004KT 03/M13 A3038 RMK A01 T00301127  RH  031%=      5-min Rain = 0
KFL1 101835Z 15003KT 03/M13 A3038 RMK A01 T00321126  RH  030%=      5-min Rain = 0
KFL1 101836Z 12002KT 03/M13 A3038 RMK A01 T00321126  RH  030%=      5-min Rain = 0
KFL1 101837Z 16002KT 03/M12 A3038 RMK A01 T00341124  RH  030%=      5-min Rain = 0
KFL1 101838Z 15002KT 03/M13 A3038 RMK A01 T00321126  RH  030%=      5-min Rain = 0
KFL1 101839Z 15001KT 03/M13 A3038 RMK A01 T00321127  RH  030%=      5-min Rain = 0
KFL1 101840Z 16002KT 04/M12 A3038 RMK A01 T00371121  RH  031%=      5-min Rain = 0
KFL1 101841Z 16003KT 04/M12 A3037 RMK A01 T00371122  RH  030%=      5-min Rain = 0
KFL1 101842Z 14002KT 04/M12 A3037 RMK A01 T00371121  RH  030%=      5-min Rain = 0
KFL1 101843Z 16002KT 04/M12 A3037 RMK A01 T00391119  RH  031%=      5-min Rain = 0
KFL1 101844Z 16001KT 04/M13 A3037 RMK A01 T00381125  RH  029%=      5-min Rain = 0
KFL1 101845Z 12001KT 04/M13 A3037 RMK A01 T00391125  RH  029%=      5-min Rain = 0
KFL1 101846Z 07001KT 04/M13 A3037 RMK A01 T00411125  RH  029%=      5-min Rain = 0
KFL1 101847Z 14002KT 04/M13 A3037 RMK A01 T00411125  RH  029%=      5-min Rain = 0
KFL1 101848Z 14004KT 04/M13 A3037 RMK A01 T00401127  RH  029%=      5-min Rain = 0
KFL1 101849Z 14003KT 04/M12 A3037 RMK A01 T00401124  RH  029%=      5-min Rain = 0
KFL1 101850Z 15002KT 04/M13 A3036 RMK A01 T00391125  RH  029%=      5-min Rain = 0
KFL1 101851Z 10004KT 04/M12 A3036 RMK A01 T00381121  RH  030%=      5-min Rain = 0
KFL1 101852Z 10004KT 04/M12 A3036 RMK A01 T00401117  RH  031%=      5-min Rain = 0
KFL1 101853Z 11003KT 04/M12 A3036 RMK A01 T00401119  RH  030%=      5-min Rain = 0
KFL1 101854Z 12004KT 04/M12 A3036 RMK A01 T00401123  RH  029%=      5-min Rain = 0
KFL1 101855Z 10004KT 04/M13 A3036 RMK A01 T00411132  RH  027%=      5-min Rain = 0
KFL1 101856Z 11003KT 04/M13 A3036 RMK A01 T00421125  RH  029%=      5-min Rain = 0
KFL1 101857Z 11005KT 04/M11 A3036 RMK A01 T00421113  RH  032%=      5-min Rain = 0
KFL1 101858Z 10004KT 04/M11 A3036 RMK A01 T00401108  RH  033%=      5-min Rain = 0
KFL1 101859Z 10005KT 04/M10 A3036 RMK A01 T00391101  RH  035%=      5-min Rain = 0
KFL1 101900Z 10006KT 04/M10 A3036 RMK A01 T00391102  RH  035%=      5-min Rain = 0
KFL1 101901Z 10006KT 04/M10 A3036 RMK A01 T00401097  RH  036%=      5-min Rain = 0
KFL1 101902Z 10005KT 04/M10 A3036 RMK A01 T00381102  RH  035%=      5-min Rain = 0
KFL1 101903Z 10005KT 04/M10 A3036 RMK A01 T00381102  RH  035%=      5-min Rain = 0
KFL1 101904Z 10005KT 04/M11 A3036 RMK A01 T00371105  RH  035%=      5-min Rain = 0
KFL1 101905Z 10005KT 04/M11 A3036 RMK A01 T00391107  RH  034%=      5-min Rain = 0
KFL1 101906Z 10005KT 04/M10 A3036 RMK A01 T00381101  RH  036%=      5-min Rain = 0
KFL1 101907Z 10004KT 04/M10 A3036 RMK A01 T00381097  RH  037%=      5-min Rain = 0
KFL1 101908Z 10003KT 04/M11 A3036 RMK A01 T00371105  RH  035%=      5-min Rain = 0
KFL1 101909Z 11005KT 04/M10 A3036 RMK A01 T00391101  RH  035%=      5-min Rain = 0
KFL1 101910Z 11004KT 04/M10 A3035 RMK A01 T00371101  RH  036%=      5-min Rain = 0
KFL1 101911Z 10004KT 04/M11 A3035 RMK A01 T00371106  RH  034%=      5-min Rain = 0
KFL1 101912Z 10004KT 04/M10 A3035 RMK A01 T00371103  RH  035%=      5-min Rain = 0
KFL1 101913Z 10005KT 04/M10 A3035 RMK A01 T00361095  RH  038%=      5-min Rain = 0
KFL1 101914Z 11004KT 04/M10 A3035 RMK A01 T00361099  RH  036%=      5-min Rain = 0
KFL1 101915Z 11004KT 04/M10 A3035 RMK A01 T00371098  RH  037%=      5-min Rain = 0
KFL1 101916Z 11004KT 04/M10 A3035 RMK A01 T00361098  RH  037%=      5-min Rain = 0
KFL1 101917Z 11004KT 04/M10 A3036 RMK A01 T00361098  RH  037%=      5-min Rain = 0
KFL1 101918Z 11004KT 04/M10 A3036 RMK A01 T00361098  RH  037%=      5-min Rain = 0
KFL1 101919Z 13003KT 04/M10 A3036 RMK A01 T00351102  RH  036%=      5-min Rain = 0
KFL1 101920Z 12004KT 04/M10 A3036 RMK A01 T00361101  RH  036%=      5-min Rain = 0
KFL1 101921Z 11003KT 04/M10 A3036 RMK A01 T00351101  RH  036%=      5-min Rain = 0
KFL1 101922Z 10003KT 04/M09 A3036 RMK A01 T00351094  RH  038%=      5-min Rain = 0
KFL1 101923Z 11004KT 04/M10 A3035 RMK A01 T00361095  RH  038%=      5-min Rain = 0
KFL1 101924Z 09005KT 04/M10 A3035 RMK A01 T00351096  RH  038%=      5-min Rain = 0
KFL1 101925Z 12004KT 04/M10 A3035 RMK A01 T00361096  RH  038%=      5-min Rain = 0
KFL1 101926Z 11005KT 04/M10 A3035 RMK A01 T00351101  RH  036%=      5-min Rain = 0
KFL1 101927Z 11005KT 03/M10 A3035 RMK A01 T00341101  RH  036%=      5-min Rain = 0
KFL1 101928Z 12004KT 04/M10 A3035 RMK A01 T00351100  RH  037%=      5-min Rain = 0
KFL1 101929Z 13004KT 04/M10 A3035 RMK A01 T00361103  RH  035%=      5-min Rain = 0
KFL1 101930Z 12004KT 04/M11 A3035 RMK A01 T00351107  RH  034%=      5-min Rain = 0
KFL1 101931Z 11005KT 04/M11 A3035 RMK A01 T00371107  RH  034%=      5-min Rain = 0
KFL1 101932Z 11004KT 04/M10 A3035 RMK A01 T00381101  RH  035%=      5-min Rain = 0
KFL1 101933Z 11004KT 04/M10 A3035 RMK A01 T00391096  RH  037%=      5-min Rain = 0
KFL1 101934Z 12005KT 04/M10 A3035 RMK A01 T00371097  RH  037%=      5-min Rain = 0
KFL1 101935Z 12004KT 04/M10 A3035 RMK A01 T00381102  RH  035%=      5-min Rain = 0
KFL1 101936Z 13004KT 04/M11 A3035 RMK A01 T00381109  RH  033%=      5-min Rain = 0
KFL1 101937Z 12004KT 04/M11 A3035 RMK A01 T00381112  RH  033%=      5-min Rain = 0
KFL1 101938Z 10004KT 04/M11 A3035 RMK A01 T00391112  RH  032%=      5-min Rain = 0
KFL1 101939Z 10004KT 04/M11 A3035 RMK A01 T00401107  RH  033%=      5-min Rain = 0
KFL1 101940Z 11003KT 04/M11 A3035 RMK A01 T00411105  RH  034%=      5-min Rain = 0
KFL1 101941Z 11004KT 04/M11 A3035 RMK A01 T00421105  RH  034%=      5-min Rain = 0
KFL1 101942Z 11003KT 04/M11 A3035 RMK A01 T00441107  RH  032%=      5-min Rain = 0
KFL1 101943Z 11004KT 04/M11 A3035 RMK A01 T00441112  RH  031%=      5-min Rain = 0
KFL1 101944Z 12004KT 04/M11 A3035 RMK A01 T00441114  RH  031%=      5-min Rain = 0
KFL1 101945Z 11003KT 04/M12 A3035 RMK A01 T00441117  RH  030%=      5-min Rain = 0
KFL1 101946Z 14004KT 05/M12 A3035 RMK A01 T00451116  RH  030%=      5-min Rain = 0
KFL1 101947Z 15004KT 04/M12 A3035 RMK A01 T00431119  RH  030%=      5-min Rain = 0
KFL1 101948Z 16005KT 04/M12 A3035 RMK A01 T00401121  RH  030%=      5-min Rain = 0
KFL1 101949Z 15005KT 04/M12 A3035 RMK A01 T00411118  RH  030%=      5-min Rain = 0
KFL1 101950Z 13004KT 04/M12 A3035 RMK A01 T00401117  RH  031%=      5-min Rain = 0
KFL1 101951Z 13002KT 04/M11 A3035 RMK A01 T00411110  RH  032%=      5-min Rain = 0
KFL1 101952Z 14003KT 04/M12 A3035 RMK A01 T00411115  RH  031%=      5-min Rain = 0
KFL1 101953Z 13003KT 04/M12 A3035 RMK A01 T00401119  RH  030%=      5-min Rain = 0
KFL1 101954Z 13003KT 04/M12 A3034 RMK A01 T00411116  RH  031%=      5-min Rain = 0
KFL1 101955Z 13004KT 04/M12 A3034 RMK A01 T00421117  RH  030%=      5-min Rain = 0
KFL1 101956Z 13004KT 04/M12 A3034 RMK A01 T00401123  RH  029%=      5-min Rain = 0
KFL1 101957Z 14004KT 04/M12 A3034 RMK A01 T00391122  RH  030%=      5-min Rain = 0
KFL1 101958Z 14003KT 04/M13 A3034 RMK A01 T00381126  RH  029%=      5-min Rain = 0
KFL1 101959Z 15003KT 04/M13 A3034 RMK A01 T00391131  RH  028%=      5-min Rain = 0
KFL1 102000Z 15003KT 04/M12 A3034 RMK A01 T00391123  RH  030%=      5-min Rain = 0
KFL1 102001Z 15003KT 04/M12 A3034 RMK A01 T00411122  RH  030%=      5-min Rain = 0
KFL1 102002Z 15004KT 04/M12 A3034 RMK A01 T00441122  RH  029%=      5-min Rain = 0
KFL1 102003Z 16005KT 04/M12 A3034 RMK A01 T00441120  RH  029%=      5-min Rain = 0
KFL1 102004Z 16005KT 04/M12 A3034 RMK A01 T00441122  RH  029%=      5-min Rain = 0
KFL1 102005Z 15004KT 05/M12 A3034 RMK A01 T00461123  RH  028%=      5-min Rain = 0
KFL1 102006Z 16003KT 05/M13 A3034 RMK A01 T00451133  RH  026%=      5-min Rain = 0
KFL1 102007Z 15003KT 05/M14 A3034 RMK A01 T00451135  RH  026%=      5-min Rain = 0
KFL1 102008Z 15004KT 04/M13 A3034 RMK A01 T00421131  RH  027%=      5-min Rain = 0
KFL1 102009Z 15003KT 04/M13 A3034 RMK A01 T00411128  RH  028%=      5-min Rain = 0
KFL1 102010Z 13003KT 04/M12 A3034 RMK A01 T00441120  RH  029%=      5-min Rain = 0
KFL1 102011Z 15004KT 04/M11 A3033 RMK A01 T00441112  RH  031%=      5-min Rain = 0
KFL1 102012Z 15004KT 05/M10 A3033 RMK A01 T00451097  RH  035%=      5-min Rain = 0
KFL1 102013Z 15003KT 05/M08 A3033 RMK A01 T00451082  RH  039%=      5-min Rain = 0
KFL1 102014Z 14002KT 05/M10 A3033 RMK A01 T00451096  RH  035%=      5-min Rain = 0
KFL1 102015Z 13003KT 04/M10 A3033 RMK A01 T00431102  RH  034%=      5-min Rain = 0
KFL1 102016Z 17001KT 05/M09 A3033 RMK A01 T00461085  RH  038%=      5-min Rain = 0
KFL1 102017Z 16002KT 05/M08 A3033 RMK A01 T00461082  RH  039%=      5-min Rain = 0
KFL1 102018Z 15005KT 05/M08 A3033 RMK A01 T00451081  RH  039%=      5-min Rain = 0
KFL1 102019Z 17003KT 05/M08 A3033 RMK A01 T00451081  RH  040%=      5-min Rain = 0
KFL1 102020Z 18003KT 05/M08 A3033 RMK A01 T00451078  RH  040%=      5-min Rain = 0
KFL1 102021Z 17004KT 05/M07 A3033 RMK A01 T00451074  RH  042%=      5-min Rain = 0
KFL1 102022Z 18003KT 04/M07 A3033 RMK A01 T00431074  RH  042%=      5-min Rain = 0
KFL1 102023Z 19003KT 04/M07 A3033 RMK A01 T00421069  RH  044%=      5-min Rain = 0
KFL1 102024Z 20003KT 04/M06 A3033 RMK A01 T00401064  RH  046%=      5-min Rain = 0
KFL1 102025Z 20002KT 04/M06 A3033 RMK A01 T00401061  RH  048%=      5-min Rain = 0
KFL1 102026Z 17002KT 04/M06 A3033 RMK A01 T00401059  RH  048%=      5-min Rain = 0
KFL1 102027Z 18003KT 04/M06 A3033 RMK A01 T00411062  RH  047%=      5-min Rain = 0
KFL1 102028Z 19003KT 04/M07 A3033 RMK A01 T00421067  RH  045%=      5-min Rain = 0
KFL1 102029Z 20004KT 04/M07 A3033 RMK A01 T00421070  RH  044%=      5-min Rain = 0
KFL1 102030Z 18004KT 04/M07 A3033 RMK A01 T00411068  RH  045%=      5-min Rain = 0
KFL1 102031Z 18004KT 04/M07 A3033 RMK A01 T00421070  RH  044%=      5-min Rain = 0
KFL1 102032Z 19004KT 04/M07 A3033 RMK A01 T00431074  RH  042%=      5-min Rain = 0
KFL1 102033Z 19003KT 04/M08 A3033 RMK A01 T00431075  RH  042%=      5-min Rain = 0
KFL1 102034Z 22004KT 04/M07 A3033 RMK A01 T00421069  RH  044%=      5-min Rain = 0
KFL1 102035Z 22004KT 04/M07 A3033 RMK A01 T00411065  RH  046%=      5-min Rain = 0
KFL1 102036Z 22005KT 04/M07 A3033 RMK A01 T00361066  RH  047%=      5-min Rain = 0
KFL1 102037Z 22004KT 03/M06 A3033 RMK A01 T00341064  RH  049%=      5-min Rain = 0
KFL1 102038Z 23006KT 03/M07 A3033 RMK A01 T00301066  RH  049%=      5-min Rain = 0
KFL1 102039Z 23006KT 03/M06 A3033 RMK A01 T00281060  RH  052%=      5-min Rain = 0
KFL1 102040Z 23006KT 03/M06 A3033 RMK A01 T00251059  RH  054%=      5-min Rain = 0
KFL1 102041Z 24006KT 02/M06 A3033 RMK A01 T00241059  RH  054%=      5-min Rain = 0
KFL1 102042Z 24005KT 02/M06 A3033 RMK A01 T00241059  RH  054%=      5-min Rain = 0
KFL1 102043Z 23007KT 02/M06 A3033 RMK A01 T00231060  RH  054%=      5-min Rain = 0
KFL1 102044Z 24008KT 02/M06 A3033 RMK A01 T00241058  RH  055%=      5-min Rain = 0
KFL1 102045Z 24007KT 02/M06 A3033 RMK A01 T00241057  RH  055%=      5-min Rain = 0
KFL1 102046Z 24008KT 02/M06 A3033 RMK A01 T00211060  RH  055%=      5-min Rain = 0
KFL1 102047Z 24006KT 02/M06 A3033 RMK A01 T00201059  RH  056%=      5-min Rain = 0
KFL1 102048Z 24007KT 02/M06 A3033 RMK A01 T00201062  RH  055%=      5-min Rain = 0
KFL1 102049Z 24006KT 02/M07 A3033 RMK A01 T00201065  RH  053%=      5-min Rain = 0
KFL1 102050Z 23006KT 02/M06 A3033 RMK A01 T00211060  RH  055%=      5-min Rain = 0
KFL1 102051Z 22005KT 02/M06 A3033 RMK A01 T00211059  RH  055%=      5-min Rain = 0
KFL1 102052Z 23006KT 03/M06 A3033 RMK A01 T00251058  RH  054%=      5-min Rain = 0
KFL1 102053Z 23006KT 03/M06 A3033 RMK A01 T00251059  RH  054%=      5-min Rain = 0
KFL1 102054Z 22006KT 03/M06 A3033 RMK A01 T00251062  RH  053%=      5-min Rain = 0
KFL1 102055Z 23005KT 03/M07 A3033 RMK A01 T00251067  RH  050%=      5-min Rain = 0
KFL1 102056Z 23005KT 03/M06 A3033 RMK A01 T00261062  RH  052%=      5-min Rain = 0
KFL1 102057Z 24005KT 03/M06 A3033 RMK A01 T00251057  RH  054%=      5-min Rain = 0
KFL1 102058Z 24005KT 03/M06 A3033 RMK A01 T00261058  RH  054%=      5-min Rain = 0
KFL1 102059Z 24004KT 02/M06 A3033 RMK A01 T00241063  RH  053%=      5-min Rain = 0
KFL1 102100Z 25006KT 02/M06 A3033 RMK A01 T00241061  RH  054%=      5-min Rain = 0
KFL1 102101Z 24005KT 02/M06 A3033 RMK A01 T00241060  RH  054%=      5-min Rain = 0
KFL1 102102Z 24005KT 02/M06 A3033 RMK A01 T00221062  RH  054%=      5-min Rain = 0
KFL1 102103Z 24005KT 02/M06 A3033 RMK A01 T00221064  RH  053%=      5-min Rain = 0
KFL1 102104Z 24004KT 02/M06 A3033 RMK A01 T00221063  RH  053%=      5-min Rain = 0
KFL1 102105Z 24004KT 02/M06 A3033 RMK A01 T00211059  RH  055%=      5-min Rain = 0
KFL1 102106Z 23004KT 02/M06 A3033 RMK A01 T00211059  RH  055%=      5-min Rain = 0
KFL1 102107Z 23003KT 02/M06 A3033 RMK A01 T00221057  RH  056%=      5-min Rain = 0
KFL1 102108Z 23004KT 02/M06 A3033 RMK A01 T00231060  RH  054%=      5-min Rain = 0
KFL1 102109Z 23004KT 02/M06 A3033 RMK A01 T00241056  RH  055%=      5-min Rain = 0
KFL1 102110Z 23004KT 03/M06 A3033 RMK A01 T00261057  RH  054%=      5-min Rain = 0
KFL1 102111Z 24003KT 03/M06 A3033 RMK A01 T00261056  RH  055%=      5-min Rain = 0
KFL1 102112Z 23004KT 03/M06 A3033 RMK A01 T00251055  RH  056%=      5-min Rain = 0
KFL1 102113Z 25003KT 03/M06 A3033 RMK A01 T00251055  RH  056%=      5-min Rain = 0
KFL1 102114Z 24003KT 02/M06 A3033 RMK A01 T00241059  RH  054%=      5-min Rain = 0
KFL1 102115Z 23003KT 02/M06 A3033 RMK A01 T00241059  RH  054%=      5-min Rain = 0
KFL1 102116Z 24002KT 02/M06 A3033 RMK A01 T00241059  RH  054%=      5-min Rain = 0
KFL1 102117Z 25003KT 02/M06 A3033 RMK A01 T00231062  RH  053%=      5-min Rain = 0
KFL1 102118Z 25003KT 02/M06 A3033 RMK A01 T00241063  RH  053%=      5-min Rain = 0
KFL1 102119Z 24002KT 02/M06 A3033 RMK A01 T00241064  RH  052%=      5-min Rain = 0
KFL1 102120Z 24002KT 02/M06 A3033 RMK A01 T00241064  RH  052%=      5-min Rain = 0
KFL1 102121Z 24002KT 03/M06 A3033 RMK A01 T00251064  RH  052%=      5-min Rain = 0
KFL1 102122Z 24003KT 03/M06 A3033 RMK A01 T00251063  RH  052%=      5-min Rain = 0
KFL1 102123Z 22002KT 03/M06 A3033 RMK A01 T00251064  RH  052%=      5-min Rain = 0
KFL1 102124Z 24002KT 03/M06 A3033 RMK A01 T00261063  RH  052%=      5-min Rain = 0
KFL1 102125Z 24002KT 03/M06 A3033 RMK A01 T00271061  RH  052%=      5-min Rain = 0
KFL1 102126Z 24002KT 03/M06 A3033 RMK A01 T00281058  RH  053%=      5-min Rain = 0
KFL1 102127Z 23002KT 03/M06 A3033 RMK A01 T00271059  RH  053%=      5-min Rain = 0
KFL1 102128Z 24003KT 03/M06 A3033 RMK A01 T00271060  RH  053%=      5-min Rain = 0
KFL1 102129Z 25002KT 03/M06 A3033 RMK A01 T00261064  RH  052%=      5-min Rain = 0
KFL1 102130Z 23002KT 03/M06 A3033 RMK A01 T00271064  RH  051%=      5-min Rain = 0
KFL1 102131Z 24002KT 03/M06 A3033 RMK A01 T00281062  RH  052%=      5-min Rain = 0
KFL1 102132Z 23001KT 03/M06 A3033 RMK A01 T00271064  RH  051%=      5-min Rain = 0
KFL1 102133Z 23001KT 03/M06 A3033 RMK A01 T00281061  RH  052%=      5-min Rain = 0
KFL1 102134Z 24001KT 03/M06 A3032 RMK A01 T00301059  RH  052%=      5-min Rain = 0
KFL1 102135Z 21001KT 03/M06 A3032 RMK A01 T00321064  RH  049%=      5-min Rain = 0
KFL1 102136Z 23002KT 03/M06 A3032 RMK A01 T00331064  RH  049%=      5-min Rain = 0
KFL1 102137Z 22002KT 03/M07 A3032 RMK A01 T00331066  RH  048%=      5-min Rain = 0
KFL1 102138Z 22001KT 03/M07 A3033 RMK A01 T00331069  RH  047%=      5-min Rain = 0
KFL1 102139Z 23002KT 03/M07 A3033 RMK A01 T00321069  RH  047%=      5-min Rain = 0
KFL1 102140Z 22002KT 03/M07 A3033 RMK A01 T00321069  RH  047%=      5-min Rain = 0
KFL1 102141Z 22002KT 03/M07 A3033 RMK A01 T00341068  RH  047%=      5-min Rain = 0
KFL1 102142Z 25002KT 03/M07 A3032 RMK A01 T00331066  RH  048%=      5-min Rain = 0
KFL1 102143Z 21002KT 03/M07 A3032 RMK A01 T00341066  RH  048%=      5-min Rain = 0
KFL1 102144Z 22002KT 03/M07 A3032 RMK A01 T00331066  RH  048%=      5-min Rain = 0
KFL1 102145Z 22002KT 03/M07 A3032 RMK A01 T00321066  RH  049%=      5-min Rain = 0
KFL1 102146Z 22001KT 04/M07 A3032 RMK A01 T00351066  RH  047%=      5-min Rain = 0
KFL1 102147Z 18000KT 04/M07 A3032 RMK A01 T00371065  RH  047%=      5-min Rain = 0
KFL1 102148Z 15001KT 04/M07 A3032 RMK A01 T00391066  RH  046%=      5-min Rain = 0
KFL1 102149Z 15002KT 04/M07 A3032 RMK A01 T00401067  RH  045%=      5-min Rain = 0
KFL1 102150Z 16002KT 04/M07 A3032 RMK A01 T00391072  RH  044%=      5-min Rain = 0
KFL1 102151Z 16002KT 04/M07 A3032 RMK A01 T00371069  RH  046%=      5-min Rain = 0
KFL1 102152Z 15002KT 04/M07 A3032 RMK A01 T00381067  RH  046%=      5-min Rain = 0
KFL1 102153Z 22000KT 04/M07 A3032 RMK A01 T00391068  RH  046%=      5-min Rain = 0
KFL1 102154Z 00000KT 04/M07 A3032 RMK A01 T00401068  RH  045%=      5-min Rain = 0
KFL1 102155Z 17000KT 04/M07 A3032 RMK A01 T00421068  RH  045%=      5-min Rain = 0
KFL1 102156Z 16001KT 04/M07 A3032 RMK A01 T00441070  RH  044%=      5-min Rain = 0
KFL1 102157Z 14001KT 04/M07 A3032 RMK A01 T00431070  RH  044%=      5-min Rain = 0
KFL1 102158Z 14000KT 04/M07 A3032 RMK A01 T00421070  RH  044%=      5-min Rain = 0
KFL1 102159Z 13002KT 04/M07 A3032 RMK A01 T00411073  RH  043%=      5-min Rain = 0
KFL1 102200Z 14002KT 04/M07 A3032 RMK A01 T00381074  RH  044%=      5-min Rain = 0
KFL1 102201Z 15002KT 04/M07 A3032 RMK A01 T00371070  RH  045%=      5-min Rain = 0
KFL1 102202Z 24001KT 04/M07 A3032 RMK A01 T00361065  RH  047%=      5-min Rain = 0
KFL1 102203Z 22002KT 04/M06 A3032 RMK A01 T00351062  RH  049%=      5-min Rain = 0
KFL1 102204Z 24001KT 04/M06 A3032 RMK A01 T00361061  RH  049%=      5-min Rain = 0
KFL1 102205Z 24002KT 04/M06 A3032 RMK A01 T00371059  RH  049%=      5-min Rain = 0
KFL1 102206Z 23002KT 04/M07 A3032 RMK A01 T00371066  RH  047%=      5-min Rain = 0
KFL1 102207Z 24002KT 04/M07 A3032 RMK A01 T00371067  RH  047%=      5-min Rain = 0
KFL1 102208Z 23002KT 04/M07 A3032 RMK A01 T00351068  RH  047%=      5-min Rain = 0
KFL1 102209Z 24002KT 04/M07 A3032 RMK A01 T00351069  RH  046%=      5-min Rain = 0
KFL1 102210Z 25002KT 04/M06 A3032 RMK A01 T00351063  RH  048%=      5-min Rain = 0
KFL1 102211Z 25002KT 03/M06 A3032 RMK A01 T00331064  RH  049%=      5-min Rain = 0
KFL1 102212Z 27002KT 03/M07 A3032 RMK A01 T00321066  RH  049%=      5-min Rain = 0
KFL1 102213Z 25003KT 03/M07 A3032 RMK A01 T00311065  RH  049%=      5-min Rain = 0
KFL1 102214Z 24003KT 03/M06 A3032 RMK A01 T00301063  RH  050%=      5-min Rain = 0
KFL1 102215Z 26002KT 03/M06 A3032 RMK A01 T00281063  RH  051%=      5-min Rain = 0
KFL1 102216Z 25001KT 03/M07 A3032 RMK A01 T00281067  RH  050%=      5-min Rain = 0
KFL1 102217Z 25000KT 03/M07 A3032 RMK A01 T00281067  RH  050%=      5-min Rain = 0
KFL1 102218Z 00000KT 03/M07 A3032 RMK A01 T00281069  RH  049%=      5-min Rain = 0
KFL1 102219Z 03001KT 03/M07 A3032 RMK A01 T00281070  RH  048%=      5-min Rain = 0
KFL1 102220Z 05001KT 03/M07 A3032 RMK A01 T00261072  RH  049%=      5-min Rain = 0
KFL1 102221Z 07000KT 03/M07 A3032 RMK A01 T00251072  RH  049%=      5-min Rain = 0
KFL1 102222Z 13000KT 03/M07 A3032 RMK A01 T00251071  RH  049%=      5-min Rain = 0
KFL1 102223Z 10001KT 03/M07 A3032 RMK A01 T00251073  RH  048%=      5-min Rain = 0
KFL1 102224Z 07001KT 03/M07 A3032 RMK A01 T00271074  RH  047%=      5-min Rain = 0
KFL1 102225Z 08001KT 03/M07 A3032 RMK A01 T00281074  RH  047%=      5-min Rain = 0
KFL1 102226Z 09005KT 03/M07 A3032 RMK A01 T00301073  RH  047%=      5-min Rain = 0
KFL1 102227Z 10006KT 03/M08 A3032 RMK A01 T00301080  RH  044%=      5-min Rain = 0
KFL1 102228Z 12004KT 03/M08 A3032 RMK A01 T00301080  RH  044%=      5-min Rain = 0
KFL1 102229Z 12004KT 03/M09 A3032 RMK A01 T00291085  RH  043%=      5-min Rain = 0
KFL1 102230Z 12004KT 03/M09 A3032 RMK A01 T00311090  RH  041%=      5-min Rain = 0
KFL1 102231Z 10005KT 03/M09 A3031 RMK A01 T00291093  RH  040%=      5-min Rain = 0
KFL1 102232Z 10005KT 03/M09 A3031 RMK A01 T00281088  RH  042%=      5-min Rain = 0
KFL1 102233Z 10006KT 03/M09 A3031 RMK A01 T00271091  RH  041%=      5-min Rain = 0
KFL1 102234Z 09006KT 03/M09 A3031 RMK A01 T00261088  RH  043%=      5-min Rain = 0
KFL1 102235Z 09006KT 03/M09 A3031 RMK A01 T00261089  RH  042%=      5-min Rain = 0
KFL1 102236Z 10005KT 03/M09 A3031 RMK A01 T00271087  RH  043%=      5-min Rain = 0
KFL1 102237Z 10006KT 03/M09 A3031 RMK A01 T00281086  RH  043%=      5-min Rain = 0
KFL1 102238Z 11005KT 03/M09 A3031 RMK A01 T00271087  RH  043%=      5-min Rain = 0
KFL1 102239Z 10004KT 03/M09 A3031 RMK A01 T00251093  RH  041%=      5-min Rain = 0
KFL1 102240Z 09006KT 03/M09 A3031 RMK A01 T00261090  RH  042%=      5-min Rain = 0
KFL1 102241Z 12005KT 03/M09 A3032 RMK A01 T00251085  RH  044%=      5-min Rain = 0
KFL1 102242Z 12007KT 02/M09 A3032 RMK A01 T00231091  RH  043%=      5-min Rain = 0
KFL1 102243Z 11006KT 02/M09 A3032 RMK A01 T00241089  RH  043%=      5-min Rain = 0
KFL1 102244Z 11006KT 02/M09 A3032 RMK A01 T00231086  RH  045%=      5-min Rain = 0
KFL1 102245Z 11006KT 02/M09 A3032 RMK A01 T00231085  RH  045%=      5-min Rain = 0
KFL1 102246Z 12005KT 02/M09 A3032 RMK A01 T00211087  RH  045%=      5-min Rain = 0
KFL1 102247Z 11005KT 02/M09 A3032 RMK A01 T00191091  RH  044%=      5-min Rain = 0
KFL1 102248Z 10004KT 02/M09 A3032 RMK A01 T00181090  RH  044%=      5-min Rain = 0
KFL1 102249Z 10006KT 02/M09 A3031 RMK A01 T00181088  RH  045%=      5-min Rain = 0
KFL1 102250Z 09007KT 02/M09 A3031 RMK A01 T00171088  RH  046%=      5-min Rain = 0
KFL1 102251Z 08006KT 02/M09 A3031 RMK A01 T00151094  RH  044%=      5-min Rain = 0
KFL1 102252Z 10004KT 02/M09 A3031 RMK A01 T00161094  RH  044%=      5-min Rain = 0
KFL1 102253Z 11004KT 02/M10 A3031 RMK A01 T00161099  RH  042%=      5-min Rain = 0
KFL1 102254Z 10005KT 02/M10 A3031 RMK A01 T00161102  RH  041%=      5-min Rain = 0
KFL1 102255Z 09007KT 02/M11 A3031 RMK A01 T00171107  RH  039%=      5-min Rain = 0
KFL1 102256Z 09007KT 02/M10 A3031 RMK A01 T00181101  RH  041%=      5-min Rain = 0
KFL1 102257Z 09008KT 02/M10 A3031 RMK A01 T00171103  RH  041%=      5-min Rain = 0
KFL1 102258Z 09008KT 02/M11 A3031 RMK A01 T00161105  RH  040%=      5-min Rain = 0
KFL1 102259Z 09008KT 02/M11 A3031 RMK A01 T00171108  RH  039%=      5-min Rain = 0
KFL1 102300Z 09008KT 02/M11 A3031 RMK A01 T00171112  RH  038%=      5-min Rain = 0
KFL1 102301Z 09007KT 02/M11 A3031 RMK A01 T00171108  RH  039%=      5-min Rain = 0
KFL1 102302Z 09006KT 02/M11 A303 RMK A01 T00161106  RH  040%=      5-min Rain = 0
KFL1 102303Z 09006KT 02/M11 A303 RMK A01 T00151107  RH  040%=      5-min Rain = 0
KFL1 102304Z 10005KT 02/M11 A303 RMK A01 T00161105  RH  040%=      5-min Rain = 0
KFL1 102305Z 09006KT 02/M11 A303 RMK A01 T00151108  RH  039%=      5-min Rain = 0
KFL1 102306Z 08007KT 02/M11 A303 RMK A01 T00171106  RH  040%=      5-min Rain = 0
KFL1 102307Z 08007KT 02/M10 A303 RMK A01 T00161103  RH  041%=      5-min Rain = 0
KFL1 102308Z 08008KT 02/M11 A303 RMK A01 T00161105  RH  040%=      5-min Rain = 0
KFL1 102309Z 08007KT 02/M11 A303 RMK A01 T00151105  RH  040%=      5-min Rain = 0
KFL1 102310Z 08007KT 01/M10 A303 RMK A01 T00141100  RH  042%=      5-min Rain = 0
KFL1 102311Z 09007KT 01/M10 A303 RMK A01 T00131103  RH  042%=      5-min Rain = 0
KFL1 102312Z 08006KT 01/M10 A303 RMK A01 T00121104  RH  042%=      5-min Rain = 0
KFL1 102313Z 08005KT 01/M10 A303 RMK A01 T00141102  RH  042%=      5-min Rain = 0
KFL1 102314Z 08006KT 01/M10 A303 RMK A01 T00121103  RH  042%=      5-min Rain = 0
KFL1 102315Z 08006KT 01/M11 A303 RMK A01 T00121105  RH  041%=      5-min Rain = 0
KFL1 102316Z 08008KT 01/M10 A303 RMK A01 T00121103  RH  042%=      5-min Rain = 0
KFL1 102317Z 08008KT 01/M10 A303 RMK A01 T00121100  RH  043%=      5-min Rain = 0
KFL1 102318Z 08007KT 01/M10 A303 RMK A01 T00111100  RH  043%=      5-min Rain = 0
KFL1 102319Z 08007KT 01/M10 A3031 RMK A01 T00111101  RH  043%=      5-min Rain = 0
KFL1 102320Z 08006KT 01/M10 A3031 RMK A01 T00091101  RH  044%=      5-min Rain = 0
KFL1 102321Z 08008KT 01/M10 A3031 RMK A01 T00081102  RH  044%=      5-min Rain = 0
KFL1 102322Z 08008KT 01/M10 A3031 RMK A01 T00081101  RH  044%=      5-min Rain = 0
KFL1 102323Z 08007KT 01/M10 A3031 RMK A01 T00051104  RH  044%=      5-min Rain = 0
KFL1 102324Z 08007KT 01/M10 A3031 RMK A01 T00051102  RH  044%=      5-min Rain = 0
KFL1 102325Z 09006KT 01/M10 A3031 RMK A01 T00051102  RH  045%=      5-min Rain = 0
KFL1 102326Z 08006KT 00/M10 A3031 RMK A01 T00041102  RH  045%=      5-min Rain = 0
KFL1 102327Z 08007KT 00/M10 A3031 RMK A01 T00041102  RH  045%=      5-min Rain = 0
KFL1 102328Z 08006KT 01/M10 A3031 RMK A01 T00051100  RH  045%=      5-min Rain = 0
KFL1 102329Z 08007KT 00/M10 A3031 RMK A01 T00031103  RH  045%=      5-min Rain = 0
KFL1 102330Z 08006KT 00/M10 A3031 RMK A01 T00021101  RH  046%=      5-min Rain = 0
KFL1 102331Z 09006KT 00/M10 A3031 RMK A01 T00011097  RH  048%=      5-min Rain = 0
KFL1 102332Z 09007KT M00/M10 A3031 RMK A01 T10011099  RH  048%=      5-min Rain = 0
KFL1 102333Z 08006KT M00/M10 A3031 RMK A01 T10011099  RH  048%=      5-min Rain = 0
KFL1 102334Z 08006KT 00/10 A3031 RMK A01 T00000-97  RH  048%=      5-min Rain = 0
KFL1 102335Z 08005KT M00/M10 A3031 RMK A01 T10011097  RH  048%=      5-min Rain = 0
KFL1 102336Z 09006KT M00/M10 A3031 RMK A01 T10021099  RH  048%=      5-min Rain = 0
KFL1 102337Z 08007KT 00/10 A3031 RMK A01 T00-00-96  RH  048%=      5-min Rain = 0
KFL1 102338Z 08007KT M00/M10 A303 RMK A01 T10011097  RH  048%=      5-min Rain = 0
KFL1 102339Z 08005KT M00/M10 A303 RMK A01 T10021097  RH  049%=      5-min Rain = 0
KFL1 102340Z 08005KT M00/M10 A303 RMK A01 T10011096  RH  049%=      5-min Rain = 0
KFL1 102341Z 08004KT M00/M10 A303 RMK A01 T10031097  RH  049%=      5-min Rain = 0
KFL1 102342Z 08005KT M01/M10 A303 RMK A01 T10061099  RH  049%=      5-min Rain = 0
KFL1 102343Z 08005KT M01/M10 A303 RMK A01 T10061101  RH  049%=      5-min Rain = 0
KFL1 102344Z 08005KT M01/M10 A303 RMK A01 T10061101  RH  049%=      5-min Rain = 0
KFL1 102345Z 07004KT M01/M10 A303 RMK A01 T10071101  RH  049%=      5-min Rain = 0
KFL1 102346Z 07005KT M01/M10 A303 RMK A01 T10091101  RH  050%=      5-min Rain = 0
KFL1 102347Z 07005KT M01/M10 A303 RMK A01 T10071099  RH  049%=      5-min Rain = 0
KFL1 102348Z 07006KT M01/M10 A303 RMK A01 T10061100  RH  049%=      5-min Rain = 0
KFL1 102349Z 07005KT M00/M10 A303 RMK A01 T10041098  RH  049%=      5-min Rain = 0
KFL1 102350Z 07005KT M00/M10 A303 RMK A01 T10041098  RH  049%=      5-min Rain = 0
KFL1 102351Z 07005KT M01/M10 A303 RMK A01 T10051098  RH  049%=      5-min Rain = 0
KFL1 102352Z 07006KT M01/M10 A303 RMK A01 T10051098  RH  050%=      5-min Rain = 0
KFL1 102353Z 07005KT M01/M10 A303 RMK A01 T10061097  RH  050%=      5-min Rain = 0
KFL1 102354Z 07005KT M01/M10 A303 RMK A01 T10051095  RH  051%=      5-min Rain = 0
KFL1 102355Z 06005KT M01/M10 A303 RMK A01 T10051095  RH  051%=      5-min Rain = 0
KFL1 102356Z 06006KT M01/M10 A303 RMK A01 T10071097  RH  051%=      5-min Rain = 0
KFL1 102357Z 07006KT M01/M10 A303 RMK A01 T10081096  RH  051%=      5-min Rain = 0
KFL1 102358Z 06005KT M01/M10 A303 RMK A01 T10081096  RH  051%=      5-min Rain = 0
KFL1 102359Z 06005KT M01/M10 A303 RMK A01 T10091096  RH  052%=      5-min Rain = 0
KFL1 110000Z 07006KT M01/M10 A303 RMK A01 T10101096  RH  052%=      5-min Rain = 0
KFL1 110001Z 06005KT M01/M10 A303 RMK A01 T10101096  RH  052%=      5-min Rain = 0
KFL1 110002Z 06004KT M01/M10 A303 RMK A01 T10091096  RH  052%=      5-min Rain = 0
KFL1 110003Z 06005KT M01/M10 A303 RMK A01 T10091095  RH  052%=      5-min Rain = 0
KFL1 110004Z 06005KT M01/M10 A303 RMK A01 T10091096  RH  052%=      5-min Rain = 0
KFL1 110005Z 06005KT M01/M09 A303 RMK A01 T10081094  RH  052%=      5-min Rain = 0
KFL1 110006Z 06005KT M01/M09 A303 RMK A01 T10081094  RH  052%=      5-min Rain = 0
KFL1 110007Z 06004KT M01/M10 A303 RMK A01 T10081095  RH  052%=      5-min Rain = 0
KFL1 110008Z 06006KT M01/M10 A3031 RMK A01 T10101097  RH  052%=      5-min Rain = 0
KFL1 110009Z 06005KT M01/M10 A3031 RMK A01 T10111098  RH  051%=      5-min Rain = 0
KFL1 110010Z 06005KT M01/M10 A3031 RMK A01 T10101100  RH  051%=      5-min Rain = 0
KFL1 110011Z 05004KT M01/M10 A3031 RMK A01 T10111101  RH  050%=      5-min Rain = 0
KFL1 110012Z 05005KT M01/M10 A3031 RMK A01 T10111104  RH  049%=      5-min Rain = 0
KFL1 110013Z 06004KT M01/M10 A3031 RMK A01 T10091102  RH  049%=      5-min Rain = 0
KFL1 110014Z 05004KT M01/M11 A3031 RMK A01 T10101105  RH  049%=      5-min Rain = 0
KFL1 110015Z 06004KT M01/M10 A3031 RMK A01 T10081103  RH  048%=      5-min Rain = 0
KFL1 110016Z 06005KT M01/M11 A3031 RMK A01 T10091106  RH  048%=      5-min Rain = 0
KFL1 110017Z 06004KT M01/M11 A3031 RMK A01 T10091106  RH  048%=      5-min Rain = 0
KFL1 110018Z 06004KT M01/M11 A3031 RMK A01 T10081106  RH  047%=      5-min Rain = 0
KFL1 110019Z 06004KT M01/M11 A3031 RMK A01 T10101109  RH  047%=      5-min Rain = 0
KFL1 110020Z 06004KT M01/M11 A3031 RMK A01 T10101109  RH  047%=      5-min Rain = 0
KFL1 110021Z 07005KT M01/M11 A3031 RMK A01 T10111110  RH  047%=      5-min Rain = 0
KFL1 110022Z 06004KT M01/M11 A3031 RMK A01 T10121109  RH  047%=      5-min Rain = 0
KFL1 110023Z 05004KT M01/M11 A3031 RMK A01 T10131110  RH  048%=      5-min Rain = 0
KFL1 110024Z 05004KT M01/M11 A3031 RMK A01 T10121109  RH  048%=      5-min Rain = 0
KFL1 110025Z 06005KT M01/M11 A3031 RMK A01 T10111108  RH  048%=      5-min Rain = 0
KFL1 110026Z 06004KT M01/M11 A3031 RMK A01 T10121111  RH  047%=      5-min Rain = 0
KFL1 110027Z 07004KT M01/M11 A3031 RMK A01 T10121110  RH  047%=      5-min Rain = 0
KFL1 110028Z 06004KT M01/M11 A3031 RMK A01 T10121108  RH  048%=      5-min Rain = 0
KFL1 110029Z 06004KT M01/M11 A3031 RMK A01 T10141109  RH  048%=      5-min Rain = 0
KFL1 110030Z 06005KT M01/M11 A3031 RMK A01 T10131107  RH  049%=      5-min Rain = 0
KFL1 110031Z 07005KT M01/M11 A303 RMK A01 T10131108  RH  048%=      5-min Rain = 0
KFL1 110032Z 06005KT M01/M11 A303 RMK A01 T10111106  RH  049%=      5-min Rain = 0
KFL1 110033Z 06004KT M01/M11 A303 RMK A01 T10121106  RH  049%=      5-min Rain = 0
KFL1 110034Z 06004KT M01/M11 A3031 RMK A01 T10131107  RH  049%=      5-min Rain = 0
KFL1 110035Z 06004KT M01/M11 A3031 RMK A01 T10141108  RH  049%=      5-min Rain = 0
KFL1 110036Z 06004KT M01/M11 A3031 RMK A01 T10141108  RH  049%=      5-min Rain = 0
KFL1 110037Z 05004KT M01/M11 A3031 RMK A01 T10141107  RH  049%=      5-min Rain = 0
KFL1 110038Z 05005KT M02/M11 A3031 RMK A01 T10161110  RH  049%=      5-min Rain = 0
KFL1 110039Z 06005KT M02/M11 A3031 RMK A01 T10151110  RH  048%=      5-min Rain = 0
KFL1 110040Z 06005KT M02/M11 A3031 RMK A01 T10151110  RH  048%=      5-min Rain = 0
KFL1 110041Z 06005KT M02/M11 A3031 RMK A01 T10151113  RH  047%=      5-min Rain = 0
KFL1 110042Z 05005KT M01/M12 A3031 RMK A01 T10141116  RH  046%=      5-min Rain = 0
KFL1 110043Z 05006KT M01/M12 A3031 RMK A01 T10131118  RH  045%=      5-min Rain = 0
KFL1 110044Z 05006KT M01/M12 A3031 RMK A01 T10131120  RH  044%=      5-min Rain = 0
KFL1 110045Z 05006KT M01/M12 A3031 RMK A01 T10121123  RH  043%=      5-min Rain = 0
KFL1 110046Z 05006KT M01/M13 A3031 RMK A01 T10111125  RH  042%=      5-min Rain = 0
KFL1 110047Z 05006KT M01/M13 A3031 RMK A01 T10101125  RH  041%=      5-min Rain = 0
KFL1 110048Z 05006KT M01/M13 A3031 RMK A01 T10091126  RH  041%=      5-min Rain = 0
KFL1 110049Z 05006KT M01/M13 A3031 RMK A01 T10071127  RH  040%=      5-min Rain = 0
KFL1 110050Z 06006KT M01/M13 A3031 RMK A01 T10081129  RH  039%=      5-min Rain = 0
KFL1 110051Z 05006KT M01/M13 A303 RMK A01 T10071130  RH  039%=      5-min Rain = 0
KFL1 110052Z 05007KT M01/M13 A303 RMK A01 T10071132  RH  038%=      5-min Rain = 0
KFL1 110053Z 05006KT M01/M13 A303 RMK A01 T10061130  RH  039%=      5-min Rain = 0
KFL1 110054Z 05007KT M01/M13 A303 RMK A01 T10061129  RH  039%=      5-min Rain = 0
KFL1 110055Z 05007KT M01/M13 A303 RMK A01 T10061131  RH  038%=      5-min Rain = 0
KFL1 110056Z 05007KT M01/M13 A303 RMK A01 T10051128  RH  039%=      5-min Rain = 0
KFL1 110057Z 05008KT M01/M13 A303 RMK A01 T10061130  RH  039%=      5-min Rain = 0
KFL1 110058Z 05007KT M01/M13 A303 RMK A01 T10061130  RH  039%=      5-min Rain = 0
KFL1 110059Z 05008KT M01/M13 A303 RMK A01 T10071132  RH  038%=      5-min Rain = 0
KFL1 110100Z 05008KT M01/M13 A303 RMK A01 T10051130  RH  038%=      5-min Rain = 0
KFL1 110101Z 05007KT M01/M13 A303 RMK A01 T10061130  RH  038%=      5-min Rain = 0
KFL1 110102Z 05008KT M00/M13 A303 RMK A01 T10041128  RH  039%=      5-min Rain = 0
KFL1 110103Z 05009KT M00/M13 A303 RMK A01 T10041129  RH  038%=      5-min Rain = 0
KFL1 110104Z 05009KT M00/M13 A303 RMK A01 T10041130  RH  038%=      5-min Rain = 0
KFL1 110105Z 05008KT M01/M13 A303 RMK A01 T10051131  RH  038%=      5-min Rain = 0
KFL1 110106Z 05008KT M00/M13 A303 RMK A01 T10041130  RH  038%=      5-min Rain = 0
KFL1 110107Z 05009KT M01/M13 A303 RMK A01 T10051130  RH  038%=      5-min Rain = 0
KFL1 110108Z 05008KT M00/M13 A303 RMK A01 T10031128  RH  038%=      5-min Rain = 0
KFL1 110109Z 05008KT M00/M13 A303 RMK A01 T10031128  RH  038%=      5-min Rain = 0
KFL1 110110Z 04008KT M00/M13 A303 RMK A01 T10031128  RH  038%=      5-min Rain = 0
KFL1 110111Z 05009KT M00/M13 A303 RMK A01 T10041131  RH  038%=      5-min Rain = 0
KFL1 110112Z 05008KT M00/M13 A303 RMK A01 T10041131  RH  038%=      5-min Rain = 0
KFL1 110113Z 04008KT M00/M13 A303 RMK A01 T10041130  RH  038%=      5-min Rain = 0
KFL1 110114Z 05008KT M01/M13 A303 RMK A01 T10051131  RH  038%=      5-min Rain = 0
KFL1 110115Z 05007KT M00/M13 A303 RMK A01 T10041130  RH  038%=      5-min Rain = 0
KFL1 110116Z 05007KT M01/M13 A303 RMK A01 T10051130  RH  038%=      5-min Rain = 0
KFL1 110117Z 05007KT M01/M13 A303 RMK A01 T10051128  RH  039%=      5-min Rain = 0
KFL1 110118Z 06007KT M01/M13 A303 RMK A01 T10051126  RH  039%=      5-min Rain = 0
KFL1 110119Z 05008KT M01/M13 A303 RMK A01 T10081128  RH  040%=      5-min Rain = 0
KFL1 110120Z 06007KT M01/M13 A303 RMK A01 T10081128  RH  040%=      5-min Rain = 0
KFL1 110121Z 05008KT M01/M13 A303 RMK A01 T10091128  RH  040%=      5-min Rain = 0
KFL1 110122Z 06007KT M01/M13 A303 RMK A01 T10091128  RH  040%=      5-min Rain = 0
KFL1 110123Z 05007KT M01/M13 A303 RMK A01 T10091130  RH  039%=      5-min Rain = 0
KFL1 110124Z 06007KT M01/M13 A303 RMK A01 T10071129  RH  039%=      5-min Rain = 0
KFL1 110125Z 05007KT M01/M13 A303 RMK A01 T10081131  RH  039%=      5-min Rain = 0
KFL1 110126Z 05007KT M01/M13 A303 RMK A01 T10071130  RH  039%=      5-min Rain = 0
KFL1 110127Z 05007KT M01/M13 A303 RMK A01 T10091132  RH  039%=      5-min Rain = 0
KFL1 110128Z 05007KT M01/M13 A303 RMK A01 T10081131  RH  039%=      5-min Rain = 0
KFL1 110129Z 05006KT M01/M13 A303 RMK A01 T10081134  RH  038%=      5-min Rain = 0
KFL1 110130Z 05007KT M01/M13 A303 RMK A01 T10071132  RH  038%=      5-min Rain = 0
KFL1 110131Z 05007KT M01/M13 A303 RMK A01 T10061131  RH  038%=      5-min Rain = 0
KFL1 110132Z 05006KT M01/M13 A303 RMK A01 T10081133  RH  038%=      5-min Rain = 0
KFL1 110133Z 05007KT M01/M13 A303 RMK A01 T10071133  RH  038%=      5-min Rain = 0
KFL1 110134Z 07007KT M01/M13 A303 RMK A01 T10071133  RH  038%=      5-min Rain = 0
KFL1 110135Z 06007KT M01/M13 A303 RMK A01 T10081132  RH  038%=      5-min Rain = 0
KFL1 110136Z 06007KT M01/M13 A303 RMK A01 T10081128  RH  040%=      5-min Rain = 0
KFL1 110137Z 05007KT M01/M13 A303 RMK A01 T10081125  RH  041%=      5-min Rain = 0
KFL1 110138Z 05007KT M01/M13 A303 RMK A01 T10091128  RH  040%=      5-min Rain = 0
KFL1 110139Z 07007KT M01/M13 A303 RMK A01 T10091130  RH  040%=      5-min Rain = 0
KFL1 110140Z 06008KT M01/M13 A303 RMK A01 T10091129  RH  040%=      5-min Rain = 0
KFL1 110141Z 06007KT M01/M13 A303 RMK A01 T10091129  RH  040%=      5-min Rain = 0
KFL1 110142Z 07008KT M01/M13 A303 RMK A01 T10091128  RH  040%=      5-min Rain = 0
KFL1 110143Z 06008KT M01/M13 A303 RMK A01 T10081126  RH  041%=      5-min Rain = 0
KFL1 110144Z 06008KT M01/M13 A303 RMK A01 T10081128  RH  040%=      5-min Rain = 0
KFL1 110145Z 06007KT M01/M13 A303 RMK A01 T10081130  RH  039%=      5-min Rain = 0
KFL1 110146Z 06006KT M01/M13 A303 RMK A01 T10081131  RH  039%=      5-min Rain = 0
KFL1 110147Z 05006KT M01/M13 A303 RMK A01 T10071131  RH  039%=      5-min Rain = 0
KFL1 110148Z 06006KT M01/M13 A3031 RMK A01 T10081132  RH  039%=      5-min Rain = 0
KFL1 110149Z 05007KT M01/M13 A3031 RMK A01 T10081131  RH  039%=      5-min Rain = 0
KFL1 110150Z 05007KT M01/M13 A3031 RMK A01 T10071130  RH  039%=      5-min Rain = 0
KFL1 110151Z 05008KT M01/M13 A3031 RMK A01 T10081133  RH  038%=      5-min Rain = 0
KFL1 110152Z 05007KT M01/M13 A3031 RMK A01 T10061133  RH  038%=      5-min Rain = 0
KFL1 110153Z 06007KT M01/M14 A3031 RMK A01 T10081135  RH  037%=      5-min Rain = 0
KFL1 110154Z 05007KT M01/M14 A3031 RMK A01 T10071136  RH  037%=      5-min Rain = 0
KFL1 110155Z 06007KT M01/M13 A3031 RMK A01 T10071134  RH  037%=      5-min Rain = 0
KFL1 110156Z 06007KT M01/M14 A3031 RMK A01 T10071135  RH  037%=      5-min Rain = 0
KFL1 110157Z 06007KT M01/M13 A3031 RMK A01 T10081133  RH  038%=      5-min Rain = 0
KFL1 110158Z 06007KT M01/M13 A3031 RMK A01 T10071132  RH  038%=      5-min Rain = 0
KFL1 110159Z 06007KT M01/M13 A3031 RMK A01 T10071132  RH  038%=      5-min Rain = 0
KFL1 110200Z 06007KT M01/M13 A3031 RMK A01 T10071131  RH  039%=      5-min Rain = 0
KFL1 110201Z 06006KT M01/M13 A3031 RMK A01 T10081130  RH  039%=      5-min Rain = 0
KFL1 110202Z 05007KT M01/M13 A3031 RMK A01 T10091129  RH  040%=      5-min Rain = 0
KFL1 110203Z 06007KT M01/M13 A303 RMK A01 T10091129  RH  040%=      5-min Rain = 0
KFL1 110204Z 05007KT M01/M13 A303 RMK A01 T10101128  RH  040%=      5-min Rain = 0
KFL1 110205Z 06008KT M01/M13 A303 RMK A01 T10111128  RH  041%=      5-min Rain = 0
KFL1 110206Z 05007KT M01/M13 A303 RMK A01 T10101125  RH  041%=      5-min Rain = 0
KFL1 110207Z 06007KT M01/M13 A303 RMK A01 T10111125  RH  042%=      5-min Rain = 0
KFL1 110208Z 05008KT M01/M13 A303 RMK A01 T10121125  RH  042%=      5-min Rain = 0
KFL1 110209Z 05007KT M01/M12 A303 RMK A01 T10111124  RH  042%=      5-min Rain = 0
KFL1 110210Z 05008KT M01/M12 A303 RMK A01 T10121124  RH  043%=      5-min Rain = 0
KFL1 110211Z 06007KT M01/M12 A303 RMK A01 T10121122  RH  043%=      5-min Rain = 0
KFL1 110212Z 05007KT M01/M12 A303 RMK A01 T10121120  RH  044%=      5-min Rain = 0
KFL1 110213Z 05007KT M01/M12 A303 RMK A01 T10121119  RH  044%=      5-min Rain = 0
KFL1 110214Z 05007KT M01/M12 A303 RMK A01 T10111116  RH  045%=      5-min Rain = 0
KFL1 110215Z 05008KT M01/M12 A303 RMK A01 T10131118  RH  045%=      5-min Rain = 0
KFL1 110216Z 06008KT M01/M12 A303 RMK A01 T10131117  RH  045%=      5-min Rain = 0
KFL1 110217Z 05007KT M01/M12 A303 RMK A01 T10131117  RH  045%=      5-min Rain = 0
KFL1 110218Z 06009KT M01/M12 A303 RMK A01 T10131116  RH  046%=      5-min Rain = 0
KFL1 110219Z 05008KT M01/M12 A303 RMK A01 T10131116  RH  045%=      5-min Rain = 0
KFL1 110220Z 06007KT M01/M12 A303 RMK A01 T10111115  RH  045%=      5-min Rain = 0
KFL1 110221Z 05008KT M01/M11 A303 RMK A01 T10091113  RH  045%=      5-min Rain = 0
KFL1 110222Z 05007KT M01/M11 A303 RMK A01 T10101114  RH  045%=      5-min Rain = 0
KFL1 110223Z 05008KT M01/M11 A303 RMK A01 T10091113  RH  045%=      5-min Rain = 0
KFL1 110224Z 05008KT M01/M11 A303 RMK A01 T10111114  RH  046%=      5-min Rain = 0
KFL1 110225Z 05007KT M01/M11 A303 RMK A01 T10101112  RH  046%=      5-min Rain = 0
KFL1 110226Z 06007KT M01/M11 A303 RMK A01 T10101111  RH  046%=      5-min Rain = 0
KFL1 110227Z 05008KT M01/M11 A303 RMK A01 T10101110  RH  046%=      5-min Rain = 0
KFL1 110228Z 05008KT M01/M11 A303 RMK A01 T10101111  RH  046%=      5-min Rain = 0
KFL1 110229Z 05008KT M01/M11 A303 RMK A01 T10101111  RH  046%=      5-min Rain = 0
KFL1 110230Z 05008KT M01/M11 A303 RMK A01 T10101112  RH  046%=      5-min Rain = 0
KFL1 110231Z 05008KT M01/M11 A303 RMK A01 T10101111  RH  046%=      5-min Rain = 0
KFL1 110232Z 06008KT M01/M11 A303 RMK A01 T10091110  RH  046%=      5-min Rain = 0
KFL1 110233Z 05006KT M01/M11 A303 RMK A01 T10091110  RH  046%=      5-min Rain = 0
KFL1 110234Z 05007KT M01/M11 A303 RMK A01 T10081107  RH  047%=      5-min Rain = 0
KFL1 110235Z 05008KT M01/M11 A303 RMK A01 T10081108  RH  047%=      5-min Rain = 0
KFL1 110236Z 05009KT M01/M11 A303 RMK A01 T10081108  RH  047%=      5-min Rain = 0
KFL1 110237Z 05008KT M01/M11 A303 RMK A01 T10071106  RH  047%=      5-min Rain = 0
KFL1 110238Z 05008KT M01/M11 A303 RMK A01 T10061107  RH  046%=      5-min Rain = 0
KFL1 110239Z 05009KT M01/M11 A303 RMK A01 T10051107  RH  046%=      5-min Rain = 0
KFL1 110240Z 05009KT M00/M11 A303 RMK A01 T10041105  RH  046%=      5-min Rain = 0
KFL1 110241Z 05007KT M00/M11 A303 RMK A01 T10041105  RH  047%=      5-min Rain = 0
KFL1 110242Z 05008KT M00/M10 A303 RMK A01 T10041104  RH  047%=      5-min Rain = 0
KFL1 110243Z 05008KT M00/M10 A303 RMK A01 T10031103  RH  047%=      5-min Rain = 0
KFL1 110244Z 05008KT M00/M10 A303 RMK A01 T10031102  RH  047%=      5-min Rain = 0
KFL1 110245Z 05008KT 00/10 A303 RMK A01 T00-00-100  RH  047%=      5-min Rain = 0
KFL1 110246Z 05007KT M00/M10 A303 RMK A01 T10021102  RH  047%=      5-min Rain = 0
KFL1 110247Z 05006KT M00/M10 A303 RMK A01 T10021101  RH  047%=      5-min Rain = 0
KFL1 110248Z 06005KT M00/M10 A303 RMK A01 T10031101  RH  047%=      5-min Rain = 0
KFL1 110249Z 06005KT M00/M10 A303 RMK A01 T10011099  RH  048%=      5-min Rain = 0
KFL1 110250Z 06006KT M00/M10 A303 RMK A01 T10021099  RH  048%=      5-min Rain = 0
KFL1 110251Z 06005KT M00/M10 A303 RMK A01 T10041100  RH  048%=      5-min Rain = 0
KFL1 110252Z 06006KT M00/M10 A303 RMK A01 T10041099  RH  049%=      5-min Rain = 0
KFL1 110253Z 05005KT M01/M10 A303 RMK A01 T10051098  RH  049%=      5-min Rain = 0
KFL1 110254Z 06006KT M01/M10 A303 RMK A01 T10061098  RH  050%=      5-min Rain = 0
KFL1 110255Z 06006KT M01/M10 A303 RMK A01 T10051098  RH  049%=      5-min Rain = 0
KFL1 110256Z 05006KT M01/M10 A303 RMK A01 T10051099  RH  049%=      5-min Rain = 0
KFL1 110257Z 06006KT M00/M10 A303 RMK A01 T10031097  RH  049%=      5-min Rain = 0
KFL1 110258Z 05006KT M00/M10 A303 RMK A01 T10031097  RH  049%=      5-min Rain = 0
KFL1 110259Z 06006KT M00/M10 A303 RMK A01 T10021097  RH  049%=      5-min Rain = 0
KFL1 110300Z 06006KT M00/M10 A303 RMK A01 T10031100  RH  048%=      5-min Rain = 0
KFL1 110301Z 05006KT M00/M10 A303 RMK A01 T10021100  RH  048%=      5-min Rain = 0
KFL1 110302Z 05006KT M00/M10 A303 RMK A01 T10011100  RH  047%=      5-min Rain = 0
KFL1 110303Z 05006KT M00/M10 A303 RMK A01 T10011100  RH  047%=      5-min Rain = 0
KFL1 110304Z 06006KT 00/10 A303 RMK A01 T00-00-100  RH  047%=      5-min Rain = 0
KFL1 110305Z 05005KT 00/M10 A303 RMK A01 T00011099  RH  047%=      5-min Rain = 0
KFL1 110306Z 05005KT 00/M10 A303 RMK A01 T00011099  RH  047%=      5-min Rain = 0
KFL1 110307Z 05006KT 00/M10 A303 RMK A01 T00021098  RH  047%=      5-min Rain = 0
KFL1 110308Z 05005KT 00/M10 A303 RMK A01 T00011098  RH  047%=      5-min Rain = 0
KFL1 110309Z 05007KT 00/M10 A303 RMK A01 T00021097  RH  047%=      5-min Rain = 0
KFL1 110310Z 05007KT 00/M10 A303 RMK A01 T00011098  RH  047%=      5-min Rain = 0
KFL1 110311Z 06006KT 00/M10 A303 RMK A01 T00011099  RH  047%=      5-min Rain = 0
KFL1 110312Z 06006KT 00/M10 A303 RMK A01 T00021098  RH  047%=      5-min Rain = 0
KFL1 110313Z 05007KT 00/M10 A303 RMK A01 T00011100  RH  047%=      5-min Rain = 0
KFL1 110314Z 04007KT 00/M10 A303 RMK A01 T00021099  RH  046%=      5-min Rain = 0
KFL1 110315Z 05006KT 00/M10 A3029 RMK A01 T00031099  RH  046%=      5-min Rain = 0
KFL1 110316Z 05007KT 00/M10 A3029 RMK A01 T00041099  RH  046%=      5-min Rain = 0
KFL1 110317Z 05006KT 00/M10 A3029 RMK A01 T00031100  RH  046%=      5-min Rain = 0
KFL1 110318Z 05008KT 01/M10 A3029 RMK A01 T00051098  RH  046%=      5-min Rain = 0
KFL1 110319Z 05007KT 01/M10 A3029 RMK A01 T00051098  RH  046%=      5-min Rain = 0
KFL1 110320Z 05008KT 01/M10 A3029 RMK A01 T00051096  RH  047%=      5-min Rain = 0
KFL1 110321Z 05008KT 00/M10 A3029 RMK A01 T00041098  RH  046%=      5-min Rain = 0
KFL1 110322Z 05007KT 00/M10 A3029 RMK A01 T00041099  RH  046%=      5-min Rain = 0
KFL1 110323Z 05007KT 00/M10 A3029 RMK A01 T00041099  RH  046%=      5-min Rain = 0
KFL1 110324Z 05006KT 01/M10 A3029 RMK A01 T00061097  RH  046%=      5-min Rain = 0
KFL1 110325Z 05007KT 01/M10 A3029 RMK A01 T00061097  RH  046%=      5-min Rain = 0
KFL1 110326Z 05006KT 01/M10 A3029 RMK A01 T00051097  RH  046%=      5-min Rain = 0
KFL1 110327Z 04006KT 00/M10 A3029 RMK A01 T00041098  RH  046%=      5-min Rain = 0
KFL1 110328Z 06006KT 01/M10 A3029 RMK A01 T00051097  RH  046%=      5-min Rain = 0
KFL1 110329Z 05006KT 01/M10 A3029 RMK A01 T00071097  RH  046%=      5-min Rain = 0
KFL1 110330Z 04007KT 01/M10 A3029 RMK A01 T00071097  RH  046%=      5-min Rain = 0
KFL1 110331Z 05007KT 01/M10 A3029 RMK A01 T00061099  RH  045%=      5-min Rain = 0
KFL1 110332Z 06006KT 01/M10 A3029 RMK A01 T00071097  RH  046%=      5-min Rain = 0
KFL1 110333Z 05007KT 01/M10 A3029 RMK A01 T00071097  RH  046%=      5-min Rain = 0
KFL1 110334Z 05005KT 01/M10 A3029 RMK A01 T00081096  RH  046%=      5-min Rain = 0
KFL1 110335Z 05007KT 01/M10 A3029 RMK A01 T00081095  RH  046%=      5-min Rain = 0
KFL1 110336Z 05007KT 01/M10 A3029 RMK A01 T00071096  RH  046%=      5-min Rain = 0
KFL1 110337Z 05006KT 01/M10 A3029 RMK A01 T00081097  RH  045%=      5-min Rain = 0
KFL1 110338Z 05007KT 01/M10 A3029 RMK A01 T00091096  RH  045%=      5-min Rain = 0
KFL1 110339Z 04008KT 01/M10 A3029 RMK A01 T00081097  RH  045%=      5-min Rain = 0
KFL1 110340Z 05008KT 01/M10 A3029 RMK A01 T00071097  RH  046%=      5-min Rain = 0
KFL1 110341Z 04008KT 01/M10 A3029 RMK A01 T00071096  RH  046%=      5-min Rain = 0
KFL1 110342Z 04008KT 01/M10 A3028 RMK A01 T00071097  RH  046%=      5-min Rain = 0
KFL1 110343Z 04007KT 01/M10 A3028 RMK A01 T00061099  RH  045%=      5-min Rain = 0
KFL1 110344Z 04009KT 01/M10 A3028 RMK A01 T00071097  RH  046%=      5-min Rain = 0
KFL1 110345Z 04008KT 01/M10 A3028 RMK A01 T00071099  RH  045%=      5-min Rain = 0
KFL1 110346Z 04009KT 01/M10 A3028 RMK A01 T00071099  RH  045%=      5-min Rain = 0
KFL1 110347Z 05008KT 01/M10 A3028 RMK A01 T00071099  RH  045%=      5-min Rain = 0
KFL1 110348Z 04008KT 01/M10 A3028 RMK A01 T00061100  RH  045%=      5-min Rain = 0
KFL1 110349Z 04008KT 01/M10 A3028 RMK A01 T00071098  RH  045%=      5-min Rain = 0
KFL1 110350Z 04008KT 01/M10 A3029 RMK A01 T00071098  RH  045%=      5-min Rain = 0
KFL1 110351Z 05008KT 01/M10 A3028 RMK A01 T00061100  RH  045%=      5-min Rain = 0
KFL1 110352Z 05007KT 01/M10 A3028 RMK A01 T00071101  RH  044%=      5-min Rain = 0
KFL1 110353Z 05008KT 01/M10 A3028 RMK A01 T00061101  RH  045%=      5-min Rain = 0
KFL1 110354Z 05008KT 01/M10 A3028 RMK A01 T00071100  RH  045%=      5-min Rain = 0
KFL1 110355Z 05008KT 01/M10 A3028 RMK A01 T00071100  RH  044%=      5-min Rain = 0
KFL1 110356Z 05008KT 01/M10 A3028 RMK A01 T00081100  RH  044%=      5-min Rain = 0
KFL1 110357Z 05007KT 01/M10 A3028 RMK A01 T00091099  RH  044%=      5-min Rain = 0
KFL1 110358Z 04008KT 01/M10 A3028 RMK A01 T00081100  RH  044%=      5-min Rain = 0
KFL1 110359Z 05008KT 01/M10 A3028 RMK A01 T00071101  RH  044%=      5-min Rain = 0
KFL1 110400Z 05008KT 01/M10 A3028 RMK A01 T00071100  RH  044%=      5-min Rain = 0
KFL1 110401Z 06007KT 01/M10 A3028 RMK A01 T00071100  RH  045%=      5-min Rain = 0
KFL1 110402Z 06006KT 01/M10 A3028 RMK A01 T00061100  RH  045%=      5-min Rain = 0
KFL1 110403Z 05007KT 01/M10 A3028 RMK A01 T00081099  RH  045%=      5-min Rain = 0
KFL1 110404Z 06006KT 01/M10 A3028 RMK A01 T00061100  RH  045%=      5-min Rain = 0
KFL1 110405Z 06007KT 01/M10 A3028 RMK A01 T00071099  RH  045%=      5-min Rain = 0
KFL1 110406Z 06006KT 01/M10 A3028 RMK A01 T00061100  RH  045%=      5-min Rain = 0
KFL1 110407Z 05006KT 01/M10 A3028 RMK A01 T00051101  RH  045%=      5-min Rain = 0
KFL1 110408Z 05007KT 01/M10 A3028 RMK A01 T00071099  RH  045%=      5-min Rain = 0
KFL1 110409Z 05008KT 01/M10 A3028 RMK A01 T00051102  RH  045%=      5-min Rain = 0
KFL1 110410Z 05008KT 01/M10 A3028 RMK A01 T00051101  RH  045%=      5-min Rain = 0
KFL1 110411Z 05007KT 01/M10 A3028 RMK A01 T00051102  RH  045%=      5-min Rain = 0
KFL1 110412Z 06007KT 00/M10 A3028 RMK A01 T00041102  RH  045%=      5-min Rain = 0
KFL1 110413Z 05008KT 01/M10 A3028 RMK A01 T00071100  RH  045%=      5-min Rain = 0
KFL1 110414Z 06007KT 01/M10 A3028 RMK A01 T00051102  RH  044%=      5-min Rain = 0
KFL1 110415Z 06006KT 01/M10 A3028 RMK A01 T00071101  RH  044%=      5-min Rain = 0
KFL1 110416Z 06007KT 01/M10 A3028 RMK A01 T00081100  RH  044%=      5-min Rain = 0
KFL1 110417Z 06006KT 01/M10 A3028 RMK A01 T00091099  RH  045%=      5-min Rain = 0
KFL1 110418Z 06005KT 01/M10 A3028 RMK A01 T00071101  RH  044%=      5-min Rain = 0
KFL1 110419Z 05006KT 01/M10 A3028 RMK A01 T00061102  RH  044%=      5-min Rain = 0
KFL1 110420Z 05006KT 01/M10 A3028 RMK A01 T00061103  RH  044%=      5-min Rain = 0
KFL1 110421Z 06007KT 01/M10 A3028 RMK A01 T00061104  RH  043%=      5-min Rain = 0
KFL1 110422Z 06007KT 01/M10 A3028 RMK A01 T00071102  RH  044%=      5-min Rain = 0
KFL1 110423Z 06008KT 01/M10 A3028 RMK A01 T00051103  RH  044%=      5-min Rain = 0
KFL1 110424Z 06007KT 01/M10 A3028 RMK A01 T00051101  RH  045%=      5-min Rain = 0
KFL1 110425Z 05006KT 01/M10 A3028 RMK A01 T00051101  RH  045%=      5-min Rain = 0
KFL1 110426Z 05005KT 00/M10 A3028 RMK A01 T00031102  RH  045%=      5-min Rain = 0
KFL1 110427Z 05006KT 00/M10 A3028 RMK A01 T00021103  RH  045%=      5-min Rain = 0
KFL1 110428Z 05007KT 00/M10 A3028 RMK A01 T00021102  RH  046%=      5-min Rain = 0
KFL1 110429Z 05006KT 00/M10 A3028 RMK A01 T00011102  RH  046%=      5-min Rain = 0
KFL1 110430Z 05007KT 00/10 A3028 RMK A01 T00-00-103  RH  046%=      5-min Rain = 0
KFL1 110431Z 06006KT M00/M10 A3028 RMK A01 T10011103  RH  046%=      5-min Rain = 0
KFL1 110432Z 05007KT M00/M10 A3028 RMK A01 T10011101  RH  047%=      5-min Rain = 0
KFL1 110433Z 05006KT 00/10 A3028 RMK A01 T00-00-100  RH  047%=      5-min Rain = 0
KFL1 110434Z 05006KT M00/M10 A3028 RMK A01 T10011100  RH  047%=      5-min Rain = 0
KFL1 110435Z 05007KT M00/M10 A3028 RMK A01 T10011099  RH  048%=      5-min Rain = 0
KFL1 110436Z 05006KT M00/M10 A3028 RMK A01 T10031101  RH  048%=      5-min Rain = 0
KFL1 110437Z 06005KT M00/M10 A3028 RMK A01 T10011100  RH  047%=      5-min Rain = 0
KFL1 110438Z 06005KT M00/M10 A3028 RMK A01 T10031103  RH  047%=      5-min Rain = 0
KFL1 110439Z 06006KT M00/M10 A3028 RMK A01 T10031103  RH  047%=      5-min Rain = 0
KFL1 110440Z 05005KT M00/M10 A3028 RMK A01 T10031103  RH  047%=      5-min Rain = 0
KFL1 110441Z 05006KT M00/M10 A3028 RMK A01 T10031104  RH  047%=      5-min Rain = 0
KFL1 110442Z 05005KT M00/M10 A3028 RMK A01 T10021104  RH  046%=      5-min Rain = 0
KFL1 110443Z 04006KT M00/M11 A3028 RMK A01 T10011105  RH  045%=      5-min Rain = 0
KFL1 110444Z 04006KT 00/M11 A3028 RMK A01 T00011105  RH  045%=      5-min Rain = 0
KFL1 110445Z 05006KT 00/M11 A3028 RMK A01 T00021105  RH  044%=      5-min Rain = 0
KFL1 110446Z 04005KT 00/M11 A3028 RMK A01 T00031105  RH  044%=      5-min Rain = 0
KFL1 110447Z 05006KT 00/M11 A3028 RMK A01 T00041105  RH  044%=      5-min Rain = 0
KFL1 110448Z 05006KT 00/M11 A3028 RMK A01 T00041106  RH  043%=      5-min Rain = 0
KFL1 110449Z 06005KT 01/M11 A3028 RMK A01 T00051105  RH  043%=      5-min Rain = 0
KFL1 110450Z 05006KT 01/M11 A3028 RMK A01 T00051105  RH  044%=      5-min Rain = 0
KFL1 110451Z 06006KT 01/M11 A3028 RMK A01 T00051105  RH  043%=      5-min Rain = 0
KFL1 110452Z 05006KT 01/M11 A3028 RMK A01 T00051105  RH  043%=      5-min Rain = 0
KFL1 110453Z 05006KT 01/M10 A3028 RMK A01 T00071104  RH  043%=      5-min Rain = 0
KFL1 110454Z 05006KT 01/M11 A3028 RMK A01 T00081105  RH  043%=      5-min Rain = 0
KFL1 110455Z 05007KT 01/M11 A3028 RMK A01 T00071105  RH  043%=      5-min Rain = 0
KFL1 110456Z 05006KT 01/M10 A3028 RMK A01 T00081103  RH  043%=      5-min Rain = 0
KFL1 110457Z 06005KT 01/M11 A3028 RMK A01 T00061105  RH  043%=      5-min Rain = 0
KFL1 110458Z 05006KT 01/M10 A3028 RMK A01 T00071104  RH  043%=      5-min Rain = 0
KFL1 110459Z 05007KT 01/M11 A3028 RMK A01 T00061106  RH  043%=      5-min Rain = 0
KFL1 110500Z 05008KT 01/M10 A3027 RMK A01 T00071104  RH  043%=      5-min Rain = 0
KFL1 110501Z 05008KT 01/M11 A3027 RMK A01 T00051105  RH  044%=      5-min Rain = 0
KFL1 110502Z 05008KT 01/M10 A3027 RMK A01 T00061102  RH  044%=      5-min Rain = 0
KFL1 110503Z 06008KT 00/M10 A3027 RMK A01 T00041104  RH  044%=      5-min Rain = 0
KFL1 110504Z 05008KT 00/M10 A3027 RMK A01 T00041103  RH  044%=      5-min Rain = 0
KFL1 110505Z 06007KT 00/M10 A3027 RMK A01 T00031104  RH  045%=      5-min Rain = 0
KFL1 110506Z 05007KT 00/M10 A3027 RMK A01 T00031102  RH  045%=      5-min Rain = 0
KFL1 110507Z 05008KT 00/M10 A3027 RMK A01 T00021104  RH  045%=      5-min Rain = 0
KFL1 110508Z 04007KT 00/M10 A3027 RMK A01 T00041104  RH  044%=      5-min Rain = 0
KFL1 110509Z 05008KT 01/M11 A3027 RMK A01 T00061106  RH  043%=      5-min Rain = 0
KFL1 110510Z 05007KT 01/M11 A3027 RMK A01 T00061107  RH  042%=      5-min Rain = 0
KFL1 110511Z 05008KT 01/M11 A3027 RMK A01 T00081107  RH  042%=      5-min Rain = 0
KFL1 110512Z 05007KT 01/M11 A3027 RMK A01 T00071108  RH  042%=      5-min Rain = 0
KFL1 110513Z 06006KT 01/M11 A3027 RMK A01 T00081107  RH  042%=      5-min Rain = 0
KFL1 110514Z 06007KT 01/M11 A3027 RMK A01 T00081107  RH  042%=      5-min Rain = 0
KFL1 110515Z 05006KT 01/M11 A3027 RMK A01 T00081106  RH  042%=      5-min Rain = 0
KFL1 110516Z 05006KT 01/M11 A3027 RMK A01 T00071108  RH  042%=      5-min Rain = 0
KFL1 110517Z 05005KT 01/M11 A3028 RMK A01 T00091106  RH  042%=      5-min Rain = 0
KFL1 110518Z 06006KT 01/M11 A3028 RMK A01 T00081108  RH  041%=      5-min Rain = 0
KFL1 110519Z 05006KT 01/M11 A3028 RMK A01 T00091108  RH  041%=      5-min Rain = 0
KFL1 110520Z 05006KT 01/M11 A3028 RMK A01 T00101107  RH  041%=      5-min Rain = 0
KFL1 110521Z 06006KT 01/M11 A3028 RMK A01 T00091109  RH  041%=      5-min Rain = 0
KFL1 110522Z 06005KT 01/M11 A3028 RMK A01 T00101108  RH  041%=      5-min Rain = 0
KFL1 110523Z 05005KT 01/M11 A3028 RMK A01 T00101109  RH  041%=      5-min Rain = 0
KFL1 110524Z 06005KT 01/M11 A3028 RMK A01 T00091110  RH  041%=      5-min Rain = 0
KFL1 110525Z 06005KT 01/M11 A3028 RMK A01 T00101110  RH  040%=      5-min Rain = 0
KFL1 110526Z 06005KT 01/M11 A3028 RMK A01 T00091110  RH  040%=      5-min Rain = 0
KFL1 110527Z 06005KT 01/M11 A3028 RMK A01 T00111109  RH  041%=      5-min Rain = 0
KFL1 110528Z 06005KT 01/M11 A3028 RMK A01 T00111107  RH  041%=      5-min Rain = 0
KFL1 110529Z 05005KT 01/M11 A3028 RMK A01 T00091109  RH  041%=      5-min Rain = 0
KFL1 110530Z 06005KT 01/M11 A3028 RMK A01 T00101108  RH  041%=      5-min Rain = 0
KFL1 110531Z 05005KT 01/M11 A3028 RMK A01 T00081109  RH  041%=      5-min Rain = 0
KFL1 110532Z 05005KT 01/M11 A3028 RMK A01 T00091107  RH  042%=      5-min Rain = 0
KFL1 110533Z 06004KT 01/M11 A3028 RMK A01 T00081107  RH  042%=      5-min Rain = 0
KFL1 110534Z 05004KT 01/M11 A3028 RMK A01 T00071107  RH  042%=      5-min Rain = 0
KFL1 110535Z 05005KT 01/M11 A3028 RMK A01 T00071105  RH  043%=      5-min Rain = 0
KFL1 110536Z 05005KT 00/M11 A3028 RMK A01 T00041107  RH  043%=      5-min Rain = 0
KFL1 110537Z 05005KT 00/M11 A3028 RMK A01 T00031107  RH  043%=      5-min Rain = 0
KFL1 110538Z 05005KT 00/M11 A3028 RMK A01 T00021108  RH  043%=      5-min Rain = 0
KFL1 110539Z 04005KT 00/M11 A3028 RMK A01 T00011111  RH  043%=      5-min Rain = 0
KFL1 110540Z 05005KT 00/M11 A3028 RMK A01 T00031110  RH  043%=      5-min Rain = 0
KFL1 110541Z 05005KT 00/M11 A3029 RMK A01 T00031110  RH  042%=      5-min Rain = 0
KFL1 110542Z 06005KT 00/M11 A3029 RMK A01 T00041110  RH  042%=      5-min Rain = 0
KFL1 110543Z 06005KT 00/M11 A3029 RMK A01 T00041110  RH  042%=      5-min Rain = 0
KFL1 110544Z 06005KT 00/M11 A3029 RMK A01 T00041112  RH  042%=      5-min Rain = 0
KFL1 110545Z 06004KT 00/M11 A3029 RMK A01 T00041110  RH  042%=      5-min Rain = 0
KFL1 110546Z 06005KT 00/M11 A3029 RMK A01 T00031113  RH  041%=      5-min Rain = 0
KFL1 110547Z 06004KT 00/M11 A3029 RMK A01 T00041111  RH  042%=      5-min Rain = 0
KFL1 110548Z 06004KT 00/M11 A3029 RMK A01 T00041112  RH  042%=      5-min Rain = 0
KFL1 110549Z 06004KT 00/M11 A3029 RMK A01 T00041111  RH  042%=      5-min Rain = 0
KFL1 110550Z 06004KT 00/M11 A3029 RMK A01 T00041109  RH  042%=      5-min Rain = 0
KFL1 110551Z 05004KT 00/M11 A3029 RMK A01 T00021112  RH  042%=      5-min Rain = 0
KFL1 110552Z 05004KT 00/M11 A3029 RMK A01 T00021111  RH  042%=      5-min Rain = 0
KFL1 110553Z 05004KT 00/M11 A3029 RMK A01 T00011114  RH  042%=      5-min Rain = 0
KFL1 110554Z 05005KT 00/M11 A3029 RMK A01 T00021113  RH  042%=      5-min Rain = 0
KFL1 110555Z 05005KT 00/M11 A3028 RMK A01 T00031112  RH  042%=      5-min Rain = 0
KFL1 110556Z 05005KT 00/M11 A3028 RMK A01 T00041113  RH  041%=      5-min Rain = 0
KFL1 110557Z 05005KT 01/M11 A3028 RMK A01 T00051112  RH  041%=      5-min Rain = 0
KFL1 110558Z 05005KT 00/M11 A3028 RMK A01 T00041114  RH  041%=      5-min Rain = 0
KFL1 110559Z 05005KT 01/M11 A3029 RMK A01 T00051113  RH  041%=      5-min Rain = 0

Page generated in 0.0367 seconds.